PTKPM SBSV-SDIH
Flight info
| Callsign | PTKPM |
|---|---|
| Flight time | N/A |
| Altitude | 5500 |
| Route | REA 1257S03821W 1301S03828W 1300S03831W 1307S03847W 1323S03854W DCT 1629S03904W 1643S03906W 1952S04005W 2003S04011W 2011S04011W 2231S04204W 2257S04229W 2302S04300W 2305S04328W 2314S04407W 2318S04427W 2331S04504W DCT 2331S04550W |
| Aircraft | BE36/L-BDFGLORY/S |
Departure
| Time | 2026-05-04 23:06 |
|---|---|
| Airport | Deputado Luiz Eduardo Magalhães International Airport (SBSV) |
Arrival
| Time | N/A |
|---|---|
| Airport | Fazenda Irohy Airport (SDIH) |
| Time | Latitude | Longitude | Altitude | Speed | Heading |
|---|---|---|---|---|---|
| 2026-05-04 23:02 | -12.91048 | -38.34421 | 46 ft | 0 kts | 235° |
| 2026-05-04 23:03 | -12.91049 | -38.34422 | 46 ft | 0 kts | 244° |
| 2026-05-04 23:03 | -12.91059 | -38.34407 | 38 ft | 9 kts | 43° |
| 2026-05-04 23:03 | -12.91048 | -38.34400 | 38 ft | 0 kts | 355° |
| 2026-05-04 23:04 | -12.90992 | -38.34403 | 38 ft | 15 kts | 348° |
| 2026-05-04 23:04 | -12.90923 | -38.34382 | 39 ft | 7 kts | 50° |
| 2026-05-04 23:04 | -12.90917 | -38.34374 | 39 ft | 0 kts | 52° |
| 2026-05-04 23:05 | -12.90915 | -38.34372 | 39 ft | 3 kts | 52° |
| 2026-05-04 23:05 | -12.90895 | -38.34345 | 41 ft | 12 kts | 52° |
| 2026-05-04 23:05 | -12.90947 | -38.34261 | 42 ft | 43 kts | 141° |
| 2026-05-04 23:05 | -12.91390 | -38.33907 | 54 ft | 109 kts | 144° |
| 2026-05-04 23:06 | -12.92052 | -38.33382 | 339 ft | 123 kts | 147° |
| 2026-05-04 23:06 | -12.92874 | -38.33347 | 764 ft | 131 kts | 204° |
| 2026-05-04 23:06 | -12.93622 | -38.33933 | 1181 ft | 142 kts | 212° |
| 2026-05-04 23:06 | -12.94497 | -38.34561 | 1214 ft | 168 kts | 209° |
| 2026-05-04 23:07 | -12.95504 | -38.35267 | 1215 ft | 181 kts | 216° |
| 2026-05-04 23:07 | -12.96259 | -38.36342 | 1206 ft | 191 kts | 239° |
| 2026-05-04 23:07 | -12.96866 | -38.37562 | 1210 ft | 191 kts | 238° |
| 2026-05-04 23:07 | -12.97503 | -38.38770 | 1205 ft | 195 kts | 238° |
| 2026-05-04 23:08 | -12.98154 | -38.39998 | 1203 ft | 197 kts | 239° |
| 2026-05-04 23:08 | -12.98801 | -38.41235 | 1206 ft | 196 kts | 238° |
| 2026-05-04 23:08 | -12.99449 | -38.42463 | 1208 ft | 196 kts | 238° |
| 2026-05-04 23:08 | -13.00092 | -38.43689 | 1215 ft | 194 kts | 238° |
| 2026-05-04 23:09 | -13.00731 | -38.44902 | 1203 ft | 195 kts | 238° |
| 2026-05-04 23:09 | -13.01356 | -38.46132 | 1202 ft | 195 kts | 243° |
| 2026-05-04 23:09 | -13.01591 | -38.47513 | 1197 ft | 200 kts | 269° |
| 2026-05-04 23:09 | -13.01454 | -38.48944 | 1211 ft | 202 kts | 274° |
| 2026-05-04 23:10 | -13.01315 | -38.50356 | 1206 ft | 201 kts | 273° |
| 2026-05-04 23:10 | -13.01178 | -38.51773 | 1209 ft | 200 kts | 272° |
| 2026-05-04 23:10 | -13.01146 | -38.53194 | 1201 ft | 198 kts | 257° |
| 2026-05-04 23:10 | -13.01592 | -38.54486 | 1204 ft | 193 kts | 239° |
| 2026-05-04 23:11 | -13.02190 | -38.55732 | 1207 ft | 194 kts | 240° |
| 2026-05-04 23:11 | -13.02778 | -38.56987 | 1206 ft | 195 kts | 241° |
| 2026-05-04 23:11 | -13.03363 | -38.58236 | 1207 ft | 196 kts | 241° |
| 2026-05-04 23:11 | -13.03956 | -38.59497 | 1205 ft | 195 kts | 241° |
| 2026-05-04 23:12 | -13.04545 | -38.60749 | 1208 ft | 195 kts | 240° |
| 2026-05-04 23:12 | -13.05131 | -38.61994 | 1209 ft | 195 kts | 241° |
| 2026-05-04 23:12 | -13.05722 | -38.63252 | 1212 ft | 194 kts | 241° |
| 2026-05-04 23:12 | -13.06304 | -38.64495 | 1214 ft | 194 kts | 240° |
| 2026-05-04 23:13 | -13.06891 | -38.65745 | 1209 ft | 194 kts | 240° |
| 2026-05-04 23:13 | -13.07475 | -38.66986 | 1217 ft | 195 kts | 241° |
| 2026-05-04 23:13 | -13.08060 | -38.68233 | 1216 ft | 195 kts | 239° |
| 2026-05-04 23:13 | -13.08650 | -38.69491 | 1213 ft | 194 kts | 240° |
| 2026-05-04 23:14 | -13.09237 | -38.70740 | 1208 ft | 194 kts | 240° |
| 2026-05-04 23:14 | -13.09819 | -38.71979 | 1207 ft | 194 kts | 241° |
| 2026-05-04 23:14 | -13.10401 | -38.73221 | 1204 ft | 194 kts | 241° |
| 2026-05-04 23:14 | -13.10992 | -38.74479 | 1204 ft | 195 kts | 240° |
| 2026-05-04 23:15 | -13.11584 | -38.75741 | 1206 ft | 196 kts | 241° |
| 2026-05-04 23:15 | -13.12169 | -38.76992 | 1213 ft | 199 kts | 240° |
| 2026-05-04 23:15 | -13.12815 | -38.78255 | 1207 ft | 199 kts | 231° |
| 2026-05-04 23:15 | -13.13805 | -38.79197 | 1303 ft | 188 kts | 209° |
| 2026-05-04 23:16 | -13.14951 | -38.79767 | 1426 ft | 183 kts | 201° |
| 2026-05-04 23:16 | -13.16102 | -38.80311 | 1541 ft | 180 kts | 201° |
| 2026-05-04 23:16 | -13.17241 | -38.80848 | 1665 ft | 178 kts | 201° |
| 2026-05-04 23:16 | -13.18359 | -38.81371 | 1787 ft | 178 kts | 201° |
| 2026-05-04 23:17 | -13.19481 | -38.81896 | 1907 ft | 177 kts | 201° |
| 2026-05-04 23:17 | -13.20605 | -38.82423 | 2000 ft | 179 kts | 201° |
| 2026-05-04 23:17 | -13.21754 | -38.82961 | 2004 ft | 182 kts | 202° |
| 2026-05-04 23:17 | -13.22908 | -38.83502 | 2005 ft | 185 kts | 201° |
| 2026-05-04 23:18 | -13.24085 | -38.84054 | 2005 ft | 185 kts | 201° |
| 2026-05-04 23:18 | -13.25262 | -38.84605 | 2007 ft | 185 kts | 201° |
| 2026-05-04 23:18 | -13.26426 | -38.85151 | 2010 ft | 186 kts | 200° |
| 2026-05-04 23:18 | -13.27608 | -38.85705 | 2003 ft | 185 kts | 200° |
| 2026-05-04 23:19 | -13.28775 | -38.86252 | 2013 ft | 186 kts | 201° |
| 2026-05-04 23:19 | -13.29955 | -38.86807 | 2002 ft | 187 kts | 200° |
| 2026-05-04 23:19 | -13.31130 | -38.87358 | 2007 ft | 187 kts | 200° |
| 2026-05-04 23:19 | -13.32303 | -38.87908 | 2004 ft | 186 kts | 201° |
| 2026-05-04 23:20 | -13.33483 | -38.88462 | 2009 ft | 185 kts | 200° |
| 2026-05-04 23:20 | -13.34651 | -38.89010 | 2008 ft | 186 kts | 201° |
| 2026-05-04 23:20 | -13.35842 | -38.89569 | 2010 ft | 187 kts | 201° |
| 2026-05-04 23:20 | -13.37039 | -38.90131 | 2017 ft | 188 kts | 200° |
| 2026-05-04 23:21 | -13.38218 | -38.90685 | 2011 ft | 188 kts | 201° |
| 2026-05-04 23:21 | -13.39479 | -38.91088 | 2116 ft | 191 kts | 183° |
| 2026-05-04 23:21 | -13.40769 | -38.91134 | 2238 ft | 183 kts | 181° |
| 2026-05-04 23:21 | -13.42052 | -38.91208 | 2358 ft | 182 kts | 180° |
| 2026-05-04 23:22 | -13.43339 | -38.91268 | 2490 ft | 190 kts | 181° |
| 2026-05-04 23:22 | -13.44645 | -38.91331 | 2700 ft | 182 kts | 180° |
| 2026-05-04 23:22 | -13.45838 | -38.91408 | 3280 ft | 168 kts | 180° |
| 2026-05-04 23:22 | -13.47026 | -38.91467 | 3501 ft | 172 kts | 180° |
| 2026-05-04 23:23 | -13.48220 | -38.91517 | 3720 ft | 171 kts | 180° |
| 2026-05-04 23:23 | -13.49396 | -38.91573 | 3924 ft | 171 kts | 180° |
| 2026-05-04 23:23 | -13.50609 | -38.91638 | 3974 ft | 179 kts | 180° |
| 2026-05-04 23:23 | -13.51856 | -38.91702 | 3979 ft | 183 kts | 180° |
| 2026-05-04 23:24 | -13.53142 | -38.91766 | 3979 ft | 186 kts | 180° |
| 2026-05-04 23:24 | -13.54439 | -38.91831 | 3983 ft | 187 kts | 180° |
| 2026-05-04 23:24 | -13.55742 | -38.91896 | 3983 ft | 187 kts | 180° |
| 2026-05-04 23:24 | -13.57032 | -38.91961 | 3985 ft | 188 kts | 180° |
| 2026-05-04 23:25 | -13.58340 | -38.92028 | 4068 ft | 184 kts | 180° |
| 2026-05-04 23:25 | -13.59540 | -38.92092 | 4664 ft | 159 kts | 180° |
| 2026-05-04 23:25 | -13.60608 | -38.92146 | 5182 ft | 151 kts | 178° |
| 2026-05-04 23:25 | -13.61671 | -38.92197 | 5484 ft | 154 kts | 179° |
| 2026-05-04 23:26 | -13.62797 | -38.92254 | 5521 ft | 172 kts | 179° |
| 2026-05-04 23:26 | -13.64045 | -38.92314 | 5513 ft | 183 kts | 179° |
| 2026-05-04 23:26 | -13.65335 | -38.92379 | 5508 ft | 192 kts | 180° |
| 2026-05-04 23:26 | -13.66680 | -38.92447 | 5505 ft | 193 kts | 179° |
| 2026-05-04 23:27 | -13.68023 | -38.92516 | 5508 ft | 192 kts | 179° |
| 2026-05-04 23:27 | -13.69343 | -38.92583 | 5510 ft | 192 kts | 179° |
| 2026-05-04 23:27 | -13.70685 | -38.92651 | 5508 ft | 192 kts | 180° |
| 2026-05-04 23:27 | -13.72004 | -38.92717 | 5512 ft | 192 kts | 179° |
| 2026-05-04 23:28 | -13.73345 | -38.92785 | 5510 ft | 192 kts | 179° |
| 2026-05-04 23:28 | -13.74674 | -38.92852 | 5511 ft | 192 kts | 180° |
| 2026-05-04 23:28 | -13.76013 | -38.92920 | 5512 ft | 192 kts | 180° |
| 2026-05-04 23:28 | -13.77354 | -38.92987 | 5512 ft | 192 kts | 180° |
| 2026-05-04 23:29 | -13.78677 | -38.93055 | 5511 ft | 192 kts | 179° |
| 2026-05-04 23:29 | -13.80009 | -38.93122 | 5509 ft | 191 kts | 180° |
| 2026-05-04 23:29 | -13.81344 | -38.93189 | 5507 ft | 191 kts | 180° |
| 2026-05-04 23:29 | -13.82681 | -38.93238 | 5507 ft | 191 kts | 175° |
| 2026-05-04 23:30 | -13.83990 | -38.93137 | 5508 ft | 190 kts | 176° |
| 2026-05-04 23:30 | -13.85318 | -38.93199 | 5507 ft | 191 kts | 181° |
| 2026-05-04 23:30 | -13.86629 | -38.93304 | 5507 ft | 191 kts | 181° |
| 2026-05-04 23:30 | -13.87953 | -38.93437 | 5506 ft | 191 kts | 184° |
| 2026-05-04 23:31 | -13.89283 | -38.93584 | 5514 ft | 193 kts | 181° |
| 2026-05-04 23:31 | -13.90634 | -38.93666 | 5511 ft | 194 kts | 180° |
| 2026-05-04 23:31 | -13.91968 | -38.93730 | 5513 ft | 193 kts | 180° |
| 2026-05-04 23:31 | -13.93317 | -38.93795 | 5511 ft | 194 kts | 180° |
| 2026-05-04 23:32 | -13.94669 | -38.93862 | 5508 ft | 195 kts | 180° |
| 2026-05-04 23:32 | -13.96012 | -38.93931 | 5505 ft | 195 kts | 180° |
| 2026-05-04 23:32 | -13.97375 | -38.94002 | 5523 ft | 195 kts | 180° |
| 2026-05-04 23:32 | -13.98722 | -38.94068 | 5512 ft | 196 kts | 180° |
| 2026-05-04 23:33 | -14.00083 | -38.94136 | 5509 ft | 194 kts | 180° |
| 2026-05-04 23:33 | -14.01432 | -38.94205 | 5508 ft | 193 kts | 180° |
| 2026-05-04 23:33 | -14.02780 | -38.94274 | 5502 ft | 193 kts | 180° |
| 2026-05-04 23:33 | -14.04107 | -38.94343 | 5503 ft | 192 kts | 180° |
| 2026-05-04 23:34 | -14.05437 | -38.94410 | 5567 ft | 188 kts | 180° |
| 2026-05-04 23:34 | -14.06743 | -38.94476 | 5610 ft | 189 kts | 180° |
| 2026-05-04 23:34 | -14.08054 | -38.94543 | 5607 ft | 191 kts | 180° |
| 2026-05-04 23:34 | -14.09386 | -38.94609 | 5608 ft | 192 kts | 180° |
| 2026-05-04 23:35 | -14.10721 | -38.94677 | 5611 ft | 192 kts | 180° |
| 2026-05-04 23:35 | -14.12061 | -38.94745 | 5611 ft | 192 kts | 180° |
| 2026-05-04 23:35 | -14.13400 | -38.94812 | 5611 ft | 192 kts | 180° |
| 2026-05-04 23:35 | -14.14722 | -38.94880 | 5611 ft | 192 kts | 180° |
| 2026-05-04 23:36 | -14.16060 | -38.94947 | 5611 ft | 193 kts | 180° |
| 2026-05-04 23:36 | -14.17403 | -38.95016 | 5612 ft | 192 kts | 180° |
| 2026-05-04 23:36 | -14.18743 | -38.95084 | 5613 ft | 193 kts | 180° |
| 2026-05-04 23:36 | -14.20068 | -38.95151 | 5615 ft | 193 kts | 180° |
| 2026-05-04 23:37 | -14.21409 | -38.95219 | 5614 ft | 192 kts | 180° |
| 2026-05-04 23:37 | -14.22748 | -38.95287 | 5611 ft | 192 kts | 180° |
| 2026-05-04 23:37 | -14.24085 | -38.95355 | 5615 ft | 192 kts | 180° |
| 2026-05-04 23:37 | -14.25411 | -38.95422 | 5613 ft | 192 kts | 180° |
| 2026-05-04 23:38 | -14.26753 | -38.95490 | 5616 ft | 192 kts | 180° |
| 2026-05-04 23:38 | -14.28069 | -38.95557 | 5616 ft | 192 kts | 180° |
| 2026-05-04 23:38 | -14.29407 | -38.95625 | 5613 ft | 192 kts | 180° |
| 2026-05-04 23:38 | -14.30742 | -38.95693 | 5613 ft | 191 kts | 180° |
| 2026-05-04 23:39 | -14.32075 | -38.95761 | 5617 ft | 191 kts | 180° |
| 2026-05-04 23:39 | -14.33388 | -38.95827 | 5615 ft | 190 kts | 180° |
| 2026-05-04 23:39 | -14.34721 | -38.95896 | 5616 ft | 190 kts | 180° |
| 2026-05-04 23:39 | -14.36035 | -38.95962 | 5615 ft | 190 kts | 180° |
| 2026-05-04 23:40 | -14.37363 | -38.96029 | 5614 ft | 190 kts | 180° |
| 2026-05-04 23:40 | -14.38687 | -38.96096 | 5617 ft | 190 kts | 181° |
| 2026-05-04 23:40 | -14.40013 | -38.96164 | 5617 ft | 191 kts | 181° |
| 2026-05-04 23:40 | -14.41332 | -38.96231 | 5615 ft | 191 kts | 180° |
| 2026-05-04 23:41 | -14.42655 | -38.96297 | 5614 ft | 190 kts | 180° |
| 2026-05-04 23:41 | -14.43983 | -38.96365 | 5618 ft | 190 kts | 180° |
| 2026-05-04 23:41 | -14.45297 | -38.96432 | 5621 ft | 191 kts | 181° |
| 2026-05-04 23:41 | -14.46612 | -38.96499 | 5621 ft | 191 kts | 181° |
| 2026-05-04 23:42 | -14.47949 | -38.96567 | 5613 ft | 190 kts | 180° |
| 2026-05-04 23:42 | -14.49262 | -38.96633 | 5619 ft | 191 kts | 181° |
| 2026-05-04 23:42 | -14.50599 | -38.96702 | 5621 ft | 192 kts | 181° |
| 2026-05-04 23:42 | -14.51920 | -38.96768 | 5620 ft | 191 kts | 181° |
| 2026-05-04 23:43 | -14.53247 | -38.96836 | 5620 ft | 190 kts | 180° |
| 2026-05-04 23:43 | -14.54563 | -38.96903 | 5622 ft | 190 kts | 180° |
| 2026-05-04 23:43 | -14.55890 | -38.96970 | 5619 ft | 190 kts | 181° |
| 2026-05-04 23:43 | -14.57206 | -38.97037 | 5622 ft | 191 kts | 181° |
| 2026-05-04 23:44 | -14.58524 | -38.97104 | 5621 ft | 191 kts | 181° |
| 2026-05-04 23:44 | -14.59857 | -38.97172 | 5621 ft | 191 kts | 180° |
| 2026-05-04 23:44 | -14.61181 | -38.97239 | 5618 ft | 191 kts | 181° |
| 2026-05-04 23:44 | -14.62508 | -38.97307 | 5623 ft | 192 kts | 180° |
| 2026-05-04 23:45 | -14.63849 | -38.97375 | 5623 ft | 191 kts | 181° |
| 2026-05-04 23:45 | -14.65172 | -38.97442 | 5621 ft | 192 kts | 181° |
| 2026-05-04 23:45 | -14.66512 | -38.97511 | 5622 ft | 192 kts | 181° |
| 2026-05-04 23:45 | -14.67838 | -38.97578 | 5623 ft | 192 kts | 181° |
| 2026-05-04 23:46 | -14.69176 | -38.97646 | 5625 ft | 192 kts | 180° |
| 2026-05-04 23:46 | -14.70514 | -38.97714 | 5626 ft | 192 kts | 180° |
| 2026-05-04 23:46 | -14.71837 | -38.97782 | 5626 ft | 192 kts | 181° |
| 2026-05-04 23:46 | -14.73180 | -38.97850 | 5623 ft | 192 kts | 181° |
| 2026-05-04 23:47 | -14.74499 | -38.97917 | 5624 ft | 191 kts | 180° |
| 2026-05-04 23:47 | -14.75835 | -38.97985 | 5622 ft | 191 kts | 180° |
| 2026-05-04 23:47 | -14.77170 | -38.98053 | 5624 ft | 191 kts | 180° |
| 2026-05-04 23:47 | -14.78482 | -38.98120 | 5625 ft | 191 kts | 181° |
| 2026-05-04 23:48 | -14.79818 | -38.98188 | 5620 ft | 191 kts | 181° |
| 2026-05-04 23:48 | -14.81150 | -38.98255 | 5624 ft | 191 kts | 181° |
| 2026-05-04 23:48 | -14.82466 | -38.98323 | 5617 ft | 191 kts | 181° |
| 2026-05-04 23:48 | -14.83808 | -38.98392 | 5625 ft | 192 kts | 180° |
| 2026-05-04 23:49 | -14.85127 | -38.98458 | 5625 ft | 191 kts | 181° |
| 2026-05-04 23:49 | -14.86442 | -38.98636 | 5623 ft | 193 kts | 198° |
| 2026-05-04 23:49 | -14.87474 | -38.99538 | 5624 ft | 201 kts | 230° |
| 2026-05-04 23:49 | -14.88235 | -39.00764 | 5627 ft | 202 kts | 233° |
| 2026-05-04 23:50 | -14.89119 | -39.01841 | 5627 ft | 197 kts | 215° |
| 2026-05-04 23:50 | -14.90272 | -39.02609 | 5636 ft | 199 kts | 203° |
| 2026-05-04 23:50 | -14.91522 | -39.03220 | 5627 ft | 196 kts | 201° |
| 2026-05-04 23:50 | -14.92756 | -39.03775 | 5622 ft | 194 kts | 198° |
| 2026-05-04 23:51 | -14.94037 | -39.04229 | 5627 ft | 193 kts | 194° |
| 2026-05-04 23:51 | -14.95314 | -39.04623 | 5633 ft | 193 kts | 193° |
| 2026-05-04 23:51 | -14.96640 | -39.04851 | 5626 ft | 192 kts | 183° |
| 2026-05-04 23:51 | -14.97960 | -39.04967 | 5626 ft | 191 kts | 182° |
| 2026-05-04 23:52 | -14.99290 | -39.05073 | 5625 ft | 192 kts | 182° |
| 2026-05-04 23:52 | -15.00620 | -39.05174 | 5623 ft | 192 kts | 182° |
| 2026-05-04 23:52 | -15.01961 | -39.05278 | 5637 ft | 193 kts | 182° |
| 2026-05-04 23:52 | -15.03315 | -39.05385 | 5638 ft | 196 kts | 182° |
| 2026-05-04 23:53 | -15.04660 | -39.05491 | 5635 ft | 195 kts | 182° |
| 2026-05-04 23:53 | -15.06014 | -39.05599 | 5632 ft | 194 kts | 182° |
| 2026-05-04 23:53 | -15.07374 | -39.05708 | 5638 ft | 194 kts | 182° |
| 2026-05-04 23:53 | -15.08709 | -39.05812 | 5638 ft | 195 kts | 182° |
| 2026-05-04 23:54 | -15.10065 | -39.05918 | 5639 ft | 193 kts | 182° |
| 2026-05-04 23:54 | -15.11412 | -39.06027 | 5640 ft | 193 kts | 182° |
| 2026-05-04 23:54 | -15.12737 | -39.06135 | 5638 ft | 193 kts | 182° |
| 2026-05-04 23:54 | -15.14088 | -39.06242 | 5635 ft | 194 kts | 182° |
| 2026-05-04 23:55 | -15.14980 | -39.06312 | 5641 ft | 193 kts | 182° |
| 2026-05-04 23:55 | -15.16332 | -39.06423 | 5636 ft | 194 kts | 183° |
| 2026-05-04 23:55 | -15.19016 | -39.06622 | 5635 ft | 193 kts | 182° |
| 2026-05-04 23:56 | -15.20342 | -39.06730 | 5636 ft | 193 kts | 182° |
| 2026-05-04 23:56 | -15.21689 | -39.06838 | 5635 ft | 194 kts | 182° |
| 2026-05-04 23:56 | -15.23017 | -39.06944 | 5642 ft | 193 kts | 182° |
| 2026-05-04 23:56 | -15.24357 | -39.07047 | 5643 ft | 192 kts | 182° |
| 2026-05-04 23:57 | -15.25697 | -39.07146 | 5641 ft | 192 kts | 182° |
| 2026-05-04 23:57 | -15.27042 | -39.07246 | 5653 ft | 195 kts | 182° |
| 2026-05-04 23:57 | -15.28387 | -39.07349 | 5654 ft | 195 kts | 182° |
| 2026-05-04 23:57 | -15.29750 | -39.07453 | 5652 ft | 195 kts | 182° |
| 2026-05-04 23:58 | -15.31019 | -39.07268 | 5704 ft | 188 kts | 183° |
| 2026-05-04 23:58 | -15.32336 | -39.07359 | 5664 ft | 189 kts | 181° |
| 2026-05-04 23:58 | -15.33608 | -39.07435 | 5667 ft | 176 kts | 184° |
| 2026-05-04 23:58 | -15.34822 | -39.07532 | 5626 ft | 169 kts | 180° |
| 2026-05-04 23:59 | -15.36009 | -39.07620 | 5656 ft | 172 kts | 179° |
| 2026-05-04 23:59 | -15.37212 | -39.07678 | 5661 ft | 173 kts | 181° |
| 2026-05-04 23:59 | -15.38421 | -39.07851 | 5666 ft | 177 kts | 190° |
| 2026-05-04 23:59 | -15.39581 | -39.07662 | 5566 ft | 175 kts | 139° |
| 2026-05-05 00:00 | -15.40622 | -39.07337 | 5926 ft | 169 kts | 192° |
| 2026-05-05 00:00 | -15.41408 | -39.07648 | 5735 ft | 188 kts | 203° |
| 2026-05-05 00:00 | -15.43093 | -39.07947 | 5573 ft | 188 kts | 180° |
| 2026-05-05 00:00 | -15.44047 | -39.07942 | 6234 ft | 151 kts | 173° |
| 2026-05-05 00:01 | -15.45199 | -39.07972 | 6099 ft | 178 kts | 182° |
| 2026-05-05 00:01 | -15.46472 | -39.08076 | 5977 ft | 190 kts | 182° |
| 2026-05-05 00:01 | -15.47821 | -39.08184 | 5861 ft | 195 kts | 180° |
| 2026-05-05 00:01 | -15.49140 | -39.08093 | 5745 ft | 172 kts | 172° |
| 2026-05-05 00:02 | -15.50188 | -39.08060 | 5662 ft | 133 kts | 200° |
| 2026-05-05 00:02 | -15.51175 | -39.08113 | 5565 ft | 157 kts | 175° |
| 2026-05-05 00:02 | -15.52300 | -39.08009 | 5643 ft | 169 kts | 175° |
| 2026-05-05 00:02 | -15.53522 | -39.08020 | 5647 ft | 180 kts | 183° |
| 2026-05-05 00:03 | -15.54774 | -39.08101 | 5648 ft | 183 kts | 177° |
| 2026-05-05 00:03 | -15.56061 | -39.08105 | 5684 ft | 185 kts | 178° |
| 2026-05-05 00:03 | -15.57308 | -39.07948 | 5734 ft | 177 kts | 163° |
| 2026-05-05 00:03 | -15.58568 | -39.07765 | 5655 ft | 186 kts | 178° |
| 2026-05-05 00:04 | -15.59859 | -39.07783 | 5656 ft | 188 kts | 178° |
| 2026-05-05 00:04 | -15.61178 | -39.07801 | 5655 ft | 189 kts | 178° |
| 2026-05-05 00:04 | -15.62488 | -39.07815 | 5655 ft | 191 kts | 178° |
| 2026-05-05 00:04 | -15.63831 | -39.07829 | 5649 ft | 192 kts | 178° |
| 2026-05-05 00:05 | -15.65152 | -39.07842 | 5651 ft | 191 kts | 178° |
| 2026-05-05 00:05 | -15.66481 | -39.07857 | 5651 ft | 189 kts | 178° |
| 2026-05-05 00:05 | -15.67789 | -39.07873 | 5646 ft | 189 kts | 178° |
| 2026-05-05 00:05 | -15.69110 | -39.07888 | 5649 ft | 190 kts | 178° |
| 2026-05-05 00:06 | -15.70429 | -39.07903 | 5652 ft | 189 kts | 178° |
| 2026-05-05 00:06 | -15.71737 | -39.07920 | 5648 ft | 189 kts | 178° |
| 2026-05-05 00:06 | -15.73054 | -39.07937 | 5648 ft | 189 kts | 178° |
| 2026-05-05 00:06 | -15.74362 | -39.07958 | 5649 ft | 189 kts | 178° |
| 2026-05-05 00:07 | -15.75683 | -39.07980 | 5648 ft | 189 kts | 178° |
| 2026-05-05 00:07 | -15.76998 | -39.08002 | 5644 ft | 189 kts | 178° |
| 2026-05-05 00:07 | -15.78312 | -39.08022 | 5648 ft | 189 kts | 178° |
| 2026-05-05 00:07 | -15.79617 | -39.08037 | 5644 ft | 189 kts | 178° |
| 2026-05-05 00:08 | -15.80936 | -39.08053 | 5645 ft | 189 kts | 178° |
| 2026-05-05 00:08 | -15.82237 | -39.08071 | 5652 ft | 189 kts | 178° |
| 2026-05-05 00:08 | -15.83556 | -39.08091 | 5647 ft | 188 kts | 178° |
| 2026-05-05 00:08 | -15.84875 | -39.08113 | 5648 ft | 189 kts | 178° |
| 2026-05-05 00:09 | -15.86174 | -39.08134 | 5650 ft | 188 kts | 178° |
| 2026-05-05 00:09 | -15.87487 | -39.08158 | 5649 ft | 188 kts | 178° |
| 2026-05-05 00:09 | -15.88788 | -39.08182 | 5647 ft | 188 kts | 178° |
| 2026-05-05 00:09 | -15.90103 | -39.08208 | 5649 ft | 189 kts | 178° |
| 2026-05-05 00:10 | -15.91421 | -39.08234 | 5649 ft | 188 kts | 178° |
| 2026-05-05 00:10 | -15.92709 | -39.08180 | 5646 ft | 187 kts | 172° |
| 2026-05-05 00:10 | -15.94007 | -39.08035 | 5649 ft | 187 kts | 171° |
| 2026-05-05 00:10 | -15.95307 | -39.07883 | 5650 ft | 186 kts | 171° |
| 2026-05-05 00:11 | -15.96586 | -39.07736 | 5647 ft | 187 kts | 171° |
| 2026-05-05 00:11 | -15.97879 | -39.07587 | 5652 ft | 187 kts | 171° |
| 2026-05-05 00:11 | -15.99171 | -39.07434 | 5654 ft | 186 kts | 171° |
| 2026-05-05 00:11 | -16.00461 | -39.07278 | 5651 ft | 186 kts | 171° |
| 2026-05-05 00:12 | -16.01732 | -39.07123 | 5651 ft | 186 kts | 171° |
| 2026-05-05 00:12 | -16.03025 | -39.06969 | 5648 ft | 186 kts | 171° |
| 2026-05-05 00:12 | -16.04316 | -39.06820 | 5646 ft | 186 kts | 171° |
| 2026-05-05 00:12 | -16.05598 | -39.06672 | 5647 ft | 186 kts | 171° |
| 2026-05-05 00:13 | -16.06877 | -39.06522 | 5648 ft | 185 kts | 171° |
| 2026-05-05 00:13 | -16.08167 | -39.06369 | 5649 ft | 186 kts | 171° |
| 2026-05-05 00:13 | -16.09446 | -39.06219 | 5654 ft | 187 kts | 171° |
| 2026-05-05 00:13 | -16.10743 | -39.06066 | 5649 ft | 186 kts | 171° |
| 2026-05-05 00:14 | -16.12029 | -39.05895 | 5649 ft | 186 kts | 165° |
| 2026-05-05 00:14 | -16.13239 | -39.05472 | 5650 ft | 185 kts | 160° |
| 2026-05-05 00:14 | -16.14499 | -39.05161 | 5650 ft | 186 kts | 171° |
| 2026-05-05 00:14 | -16.15790 | -39.05139 | 5651 ft | 188 kts | 179° |
| 2026-05-05 00:15 | -16.17097 | -39.05222 | 5651 ft | 187 kts | 181° |
| 2026-05-05 00:15 | -16.18401 | -39.05300 | 5652 ft | 187 kts | 180° |
| 2026-05-05 00:15 | -16.19705 | -39.05368 | 5652 ft | 187 kts | 180° |
| 2026-05-05 00:15 | -16.20988 | -39.05433 | 5653 ft | 186 kts | 179° |
| 2026-05-05 00:16 | -16.22287 | -39.05501 | 5653 ft | 185 kts | 180° |
| 2026-05-05 00:16 | -16.23573 | -39.05567 | 5653 ft | 185 kts | 179° |
| 2026-05-05 00:16 | -16.24859 | -39.05633 | 5654 ft | 186 kts | 180° |
| 2026-05-05 00:16 | -16.26162 | -39.05699 | 5653 ft | 187 kts | 180° |
| 2026-05-05 00:17 | -16.27452 | -39.05766 | 5654 ft | 187 kts | 180° |
| 2026-05-05 00:17 | -16.28751 | -39.05836 | 5654 ft | 186 kts | 180° |
| 2026-05-05 00:17 | -16.30032 | -39.05903 | 5655 ft | 186 kts | 179° |
| 2026-05-05 00:17 | -16.31328 | -39.05968 | 5656 ft | 186 kts | 179° |
| 2026-05-05 00:18 | -16.32630 | -39.06035 | 5655 ft | 187 kts | 179° |
| 2026-05-05 00:18 | -16.33929 | -39.06103 | 5655 ft | 187 kts | 180° |
| 2026-05-05 00:18 | -16.35215 | -39.06169 | 5656 ft | 186 kts | 179° |
| 2026-05-05 00:18 | -16.36515 | -39.06236 | 5654 ft | 186 kts | 180° |
| 2026-05-05 00:19 | -16.37794 | -39.06303 | 5654 ft | 186 kts | 180° |
| 2026-05-05 00:19 | -16.39090 | -39.06369 | 5654 ft | 186 kts | 180° |
| 2026-05-05 00:19 | -16.40393 | -39.06437 | 5653 ft | 186 kts | 180° |
| 2026-05-05 00:19 | -16.41670 | -39.06504 | 5651 ft | 186 kts | 179° |
| 2026-05-05 00:20 | -16.42972 | -39.06571 | 5654 ft | 186 kts | 180° |
| 2026-05-05 00:20 | -16.44261 | -39.06638 | 5655 ft | 187 kts | 180° |
| 2026-05-05 00:20 | -16.45565 | -39.06705 | 5652 ft | 187 kts | 180° |
| 2026-05-05 00:20 | -16.46875 | -39.06771 | 5602 ft | 189 kts | 180° |
| 2026-05-05 00:21 | -16.48189 | -39.06840 | 5451 ft | 194 kts | 180° |
| 2026-05-05 00:21 | -16.49559 | -39.06962 | 5212 ft | 200 kts | 187° |
| 2026-05-05 00:21 | -16.50947 | -39.07237 | 4963 ft | 202 kts | 187° |
| 2026-05-05 00:21 | -16.52319 | -39.07502 | 4728 ft | 202 kts | 187° |
| 2026-05-05 00:22 | -16.53709 | -39.07766 | 4483 ft | 202 kts | 187° |
| 2026-05-05 00:22 | -16.55080 | -39.08027 | 4239 ft | 201 kts | 187° |
| 2026-05-05 00:22 | -16.56459 | -39.08290 | 4000 ft | 200 kts | 187° |
| 2026-05-05 00:22 | -16.57817 | -39.08550 | 3768 ft | 199 kts | 187° |
| 2026-05-05 00:23 | -16.59170 | -39.08811 | 3521 ft | 196 kts | 187° |
| 2026-05-05 00:23 | -16.60512 | -39.09054 | 3265 ft | 196 kts | 188° |
| 2026-05-05 00:23 | -16.61851 | -39.09318 | 3023 ft | 195 kts | 187° |
| 2026-05-05 00:23 | -16.63166 | -39.09572 | 2784 ft | 194 kts | 188° |
| 2026-05-05 00:24 | -16.64494 | -39.09825 | 2536 ft | 192 kts | 188° |
| 2026-05-05 00:24 | -16.65812 | -39.10078 | 2289 ft | 190 kts | 188° |
| 2026-05-05 00:24 | -16.67088 | -39.10319 | 2042 ft | 187 kts | 188° |
| 2026-05-05 00:24 | -16.68376 | -39.10561 | 1798 ft | 188 kts | 189° |
| 2026-05-05 00:25 | -16.69671 | -39.10814 | 1550 ft | 191 kts | 189° |
| 2026-05-05 00:25 | -16.70964 | -39.11065 | 1497 ft | 186 kts | 188° |
| 2026-05-05 00:25 | -16.72217 | -39.11300 | 1496 ft | 180 kts | 188° |
| 2026-05-05 00:25 | -16.73424 | -39.11593 | 1494 ft | 177 kts | 194° |
| 2026-05-05 00:26 | -16.74587 | -39.11957 | 1496 ft | 176 kts | 194° |
| 2026-05-05 00:26 | -16.75769 | -39.12313 | 1493 ft | 176 kts | 194° |
| 2026-05-05 00:26 | -16.76942 | -39.12666 | 1497 ft | 175 kts | 194° |
| 2026-05-05 00:26 | -16.78103 | -39.13017 | 1495 ft | 175 kts | 194° |
| 2026-05-05 00:27 | -16.79268 | -39.13369 | 1495 ft | 173 kts | 194° |
| 2026-05-05 00:27 | -16.80428 | -39.13721 | 1495 ft | 173 kts | 194° |
| 2026-05-05 00:27 | -16.81590 | -39.14072 | 1499 ft | 173 kts | 194° |
| 2026-05-05 00:27 | -16.82750 | -39.14423 | 1503 ft | 174 kts | 193° |
| 2026-05-05 00:28 | -16.83894 | -39.14769 | 1689 ft | 170 kts | 194° |
| 2026-05-05 00:28 | -16.85009 | -39.15112 | 1927 ft | 163 kts | 193° |
| 2026-05-05 00:28 | -16.86066 | -39.15432 | 2164 ft | 157 kts | 193° |
| 2026-05-05 00:28 | -16.87113 | -39.15749 | 2405 ft | 155 kts | 192° |
| 2026-05-05 00:29 | -16.88142 | -39.16062 | 2647 ft | 153 kts | 192° |
| 2026-05-05 00:29 | -16.89161 | -39.16371 | 2884 ft | 152 kts | 192° |
| 2026-05-05 00:29 | -16.90180 | -39.16680 | 3123 ft | 152 kts | 192° |
| 2026-05-05 00:29 | -16.91190 | -39.16986 | 3365 ft | 153 kts | 192° |
| 2026-05-05 00:30 | -16.92229 | -39.17299 | 3499 ft | 160 kts | 192° |
| 2026-05-05 00:30 | -16.93336 | -39.17633 | 3500 ft | 169 kts | 192° |
| 2026-05-05 00:30 | -16.94484 | -39.17979 | 3509 ft | 173 kts | 192° |
| 2026-05-05 00:30 | -16.95638 | -39.18328 | 3515 ft | 176 kts | 192° |
| 2026-05-05 00:31 | -16.96826 | -39.18687 | 3515 ft | 178 kts | 192° |
| 2026-05-05 00:31 | -16.98031 | -39.19052 | 3518 ft | 185 kts | 192° |
| 2026-05-05 00:31 | -16.99301 | -39.19435 | 3512 ft | 192 kts | 192° |
| 2026-05-05 00:31 | -17.00591 | -39.19826 | 3504 ft | 191 kts | 192° |
| 2026-05-05 00:32 | -17.01830 | -39.20203 | 3502 ft | 184 kts | 192° |
| 2026-05-05 00:32 | -17.03053 | -39.20576 | 3496 ft | 181 kts | 192° |
| 2026-05-05 00:32 | -17.04260 | -39.20943 | 3507 ft | 179 kts | 192° |
| 2026-05-05 00:32 | -17.05450 | -39.21305 | 3501 ft | 180 kts | 192° |
| 2026-05-05 00:33 | -17.06641 | -39.21665 | 3548 ft | 179 kts | 192° |
| 2026-05-05 00:33 | -17.07775 | -39.22016 | 3972 ft | 158 kts | 192° |
| 2026-05-05 00:33 | -17.08820 | -39.22335 | 4333 ft | 157 kts | 191° |
| 2026-05-05 00:33 | -17.09895 | -39.22658 | 4505 ft | 166 kts | 192° |
| 2026-05-05 00:34 | -17.11045 | -39.23003 | 4510 ft | 176 kts | 192° |
| 2026-05-05 00:34 | -17.12232 | -39.23363 | 4516 ft | 181 kts | 192° |
| 2026-05-05 00:34 | -17.13460 | -39.23735 | 4520 ft | 184 kts | 192° |
| 2026-05-05 00:34 | -17.14688 | -39.24109 | 4519 ft | 186 kts | 193° |
| 2026-05-05 00:35 | -17.15941 | -39.24489 | 4516 ft | 187 kts | 192° |
| 2026-05-05 00:35 | -17.17188 | -39.24867 | 4518 ft | 188 kts | 192° |
| 2026-05-05 00:35 | -17.18449 | -39.25251 | 4515 ft | 188 kts | 192° |
| 2026-05-05 00:35 | -17.19687 | -39.25626 | 4515 ft | 187 kts | 192° |
| 2026-05-05 00:36 | -17.20944 | -39.26009 | 4516 ft | 187 kts | 192° |
| 2026-05-05 00:36 | -17.22197 | -39.26391 | 4517 ft | 186 kts | 192° |
| 2026-05-05 00:36 | -17.23432 | -39.26766 | 4517 ft | 186 kts | 192° |
| 2026-05-05 00:36 | -17.24677 | -39.27144 | 4512 ft | 186 kts | 192° |
| 2026-05-05 00:37 | -17.25915 | -39.27521 | 4514 ft | 186 kts | 192° |
| 2026-05-05 00:37 | -17.27165 | -39.27901 | 4515 ft | 186 kts | 192° |
| 2026-05-05 00:37 | -17.28395 | -39.28276 | 4514 ft | 186 kts | 192° |
| 2026-05-05 00:37 | -17.29646 | -39.28656 | 4517 ft | 186 kts | 192° |
| 2026-05-05 00:38 | -17.30893 | -39.29036 | 4518 ft | 187 kts | 192° |
| 2026-05-05 00:38 | -17.32137 | -39.29414 | 4520 ft | 187 kts | 192° |
| 2026-05-05 00:38 | -17.33385 | -39.29794 | 4516 ft | 187 kts | 192° |
| 2026-05-05 00:38 | -17.34643 | -39.30177 | 4519 ft | 187 kts | 192° |
| 2026-05-05 00:39 | -17.35898 | -39.30559 | 4517 ft | 187 kts | 192° |
| 2026-05-05 00:39 | -17.37110 | -39.30928 | 4520 ft | 188 kts | 192° |
| 2026-05-05 00:39 | -17.38354 | -39.31306 | 4517 ft | 188 kts | 192° |
| 2026-05-05 00:39 | -17.39188 | -39.31561 | 4518 ft | 187 kts | 192° |
| 2026-05-05 00:40 | -17.40438 | -39.31942 | 4517 ft | 187 kts | 192° |
| 2026-05-05 00:40 | -17.41692 | -39.32326 | 4525 ft | 187 kts | 192° |
| 2026-05-05 00:40 | -17.42937 | -39.32702 | 4517 ft | 187 kts | 192° |
| 2026-05-05 00:40 | -17.44203 | -39.33089 | 4517 ft | 188 kts | 192° |
| 2026-05-05 00:41 | -17.45460 | -39.33473 | 4527 ft | 189 kts | 192° |
| 2026-05-05 00:41 | -17.46722 | -39.33855 | 4525 ft | 190 kts | 192° |
| 2026-05-05 00:41 | -17.47989 | -39.34242 | 4526 ft | 188 kts | 192° |
| 2026-05-05 00:41 | -17.49241 | -39.34627 | 4526 ft | 189 kts | 192° |
| 2026-05-05 00:42 | -17.50517 | -39.35013 | 4524 ft | 190 kts | 192° |
| 2026-05-05 00:42 | -17.51780 | -39.35399 | 4527 ft | 190 kts | 192° |
| 2026-05-05 00:42 | -17.53051 | -39.35788 | 4521 ft | 189 kts | 192° |
| 2026-05-05 00:42 | -17.54302 | -39.36167 | 4521 ft | 189 kts | 192° |
| 2026-05-05 00:43 | -17.55567 | -39.36556 | 4524 ft | 188 kts | 193° |
| 2026-05-05 00:43 | -17.56814 | -39.36936 | 4522 ft | 189 kts | 192° |
| 2026-05-05 00:43 | -17.58080 | -39.37322 | 4523 ft | 188 kts | 192° |
| 2026-05-05 00:43 | -17.59327 | -39.37702 | 4521 ft | 188 kts | 192° |
| 2026-05-05 00:44 | -17.60593 | -39.38089 | 4525 ft | 189 kts | 193° |
| 2026-05-05 00:44 | -17.61837 | -39.38468 | 4522 ft | 188 kts | 192° |
| 2026-05-05 00:44 | -17.63099 | -39.38854 | 4530 ft | 189 kts | 192° |
| 2026-05-05 00:44 | -17.64352 | -39.39238 | 4515 ft | 188 kts | 192° |
| 2026-05-05 00:45 | -17.65621 | -39.39625 | 4520 ft | 189 kts | 193° |
| 2026-05-05 00:45 | -17.66883 | -39.40010 | 4522 ft | 190 kts | 193° |
| 2026-05-05 00:45 | -17.68151 | -39.40397 | 4517 ft | 188 kts | 192° |
| 2026-05-05 00:45 | -17.69392 | -39.40778 | 4525 ft | 188 kts | 192° |
| 2026-05-05 00:46 | -17.70656 | -39.41164 | 4515 ft | 187 kts | 192° |
| 2026-05-05 00:46 | -17.71900 | -39.41545 | 4516 ft | 186 kts | 192° |
| 2026-05-05 00:46 | -17.73133 | -39.41922 | 4529 ft | 186 kts | 192° |
| 2026-05-05 00:46 | -17.74390 | -39.42306 | 4527 ft | 188 kts | 192° |
| 2026-05-05 00:47 | -17.75642 | -39.42683 | 4518 ft | 188 kts | 192° |
| 2026-05-05 00:47 | -17.76883 | -39.43069 | 4524 ft | 187 kts | 192° |
| 2026-05-05 00:47 | -17.78139 | -39.43455 | 4526 ft | 186 kts | 193° |
| 2026-05-05 00:47 | -17.79398 | -39.43838 | 4522 ft | 186 kts | 192° |
| 2026-05-05 00:48 | -17.80626 | -39.44214 | 4527 ft | 186 kts | 192° |
| 2026-05-05 00:48 | -17.81887 | -39.44599 | 4519 ft | 188 kts | 192° |
| 2026-05-05 00:48 | -17.83135 | -39.44979 | 4523 ft | 187 kts | 193° |
| 2026-05-05 00:48 | -17.84390 | -39.45366 | 4515 ft | 186 kts | 193° |
| 2026-05-05 00:49 | -17.85626 | -39.45746 | 4517 ft | 185 kts | 192° |
| 2026-05-05 00:49 | -17.86872 | -39.46127 | 4524 ft | 186 kts | 192° |
| 2026-05-05 00:49 | -17.88108 | -39.46505 | 4515 ft | 186 kts | 192° |
| 2026-05-05 00:49 | -17.89359 | -39.46888 | 4514 ft | 187 kts | 192° |
| 2026-05-05 00:50 | -17.90600 | -39.47269 | 4526 ft | 189 kts | 192° |
| 2026-05-05 00:50 | -17.91878 | -39.47660 | 4526 ft | 192 kts | 192° |
| 2026-05-05 00:50 | -17.93141 | -39.48045 | 4521 ft | 189 kts | 192° |
| 2026-05-05 00:50 | -17.94411 | -39.48438 | 4531 ft | 190 kts | 192° |
| 2026-05-05 00:51 | -17.95666 | -39.48821 | 4522 ft | 188 kts | 193° |
| 2026-05-05 00:51 | -17.96938 | -39.49211 | 4525 ft | 191 kts | 192° |
| 2026-05-05 00:51 | -17.98205 | -39.49599 | 4523 ft | 190 kts | 192° |
| 2026-05-05 00:51 | -17.99478 | -39.49991 | 4532 ft | 190 kts | 192° |
| 2026-05-05 00:52 | -18.00744 | -39.50381 | 4521 ft | 191 kts | 192° |
| 2026-05-05 00:52 | -18.02030 | -39.50772 | 4532 ft | 192 kts | 192° |
| 2026-05-05 00:52 | -18.03305 | -39.51161 | 4523 ft | 191 kts | 192° |
| 2026-05-05 00:52 | -18.04577 | -39.51554 | 4521 ft | 189 kts | 192° |
| 2026-05-05 00:53 | -18.05825 | -39.51939 | 4522 ft | 188 kts | 192° |
| 2026-05-05 00:53 | -18.07090 | -39.52327 | 4517 ft | 187 kts | 192° |
| 2026-05-05 00:53 | -18.08328 | -39.52707 | 4517 ft | 187 kts | 192° |
| 2026-05-05 00:53 | -18.09583 | -39.53093 | 4518 ft | 187 kts | 192° |
| 2026-05-05 00:54 | -18.10836 | -39.53477 | 4521 ft | 187 kts | 192° |
| 2026-05-05 00:54 | -18.12072 | -39.53857 | 4523 ft | 187 kts | 192° |
| 2026-05-05 00:54 | -18.13333 | -39.54244 | 4522 ft | 188 kts | 192° |
| 2026-05-05 00:54 | -18.14587 | -39.54629 | 4520 ft | 186 kts | 192° |
| 2026-05-05 00:55 | -18.15825 | -39.55010 | 4521 ft | 186 kts | 192° |
| 2026-05-05 00:55 | -18.17059 | -39.55389 | 4521 ft | 187 kts | 192° |
| 2026-05-05 00:55 | -18.18311 | -39.55774 | 4523 ft | 187 kts | 192° |
| 2026-05-05 00:55 | -18.19560 | -39.56158 | 4523 ft | 186 kts | 192° |
| 2026-05-05 00:56 | -18.20785 | -39.56535 | 4522 ft | 185 kts | 192° |
| 2026-05-05 00:56 | -18.22033 | -39.56919 | 4522 ft | 186 kts | 193° |
| 2026-05-05 00:56 | -18.23271 | -39.57299 | 4521 ft | 186 kts | 192° |
| 2026-05-05 00:56 | -18.24520 | -39.57684 | 4523 ft | 186 kts | 192° |
| 2026-05-05 00:57 | -18.25752 | -39.58062 | 4521 ft | 185 kts | 193° |
| 2026-05-05 00:57 | -18.26995 | -39.58445 | 4521 ft | 185 kts | 193° |
| 2026-05-05 00:57 | -18.28230 | -39.58825 | 4521 ft | 185 kts | 193° |
| 2026-05-05 00:57 | -18.29439 | -39.59200 | 4635 ft | 178 kts | 192° |
| 2026-05-05 00:58 | -18.30575 | -39.59555 | 5055 ft | 164 kts | 192° |
| 2026-05-05 00:58 | -18.31660 | -39.59890 | 5266 ft | 166 kts | 192° |
| 2026-05-05 00:58 | -18.32784 | -39.60235 | 5485 ft | 168 kts | 192° |
| 2026-05-05 00:58 | -18.33921 | -39.60584 | 5677 ft | 171 kts | 191° |
| 2026-05-05 00:59 | -18.35060 | -39.60935 | 5892 ft | 172 kts | 191° |
| 2026-05-05 00:59 | -18.36220 | -39.61292 | 6098 ft | 174 kts | 191° |
| 2026-05-05 00:59 | -18.37376 | -39.61648 | 6310 ft | 175 kts | 192° |
| 2026-05-05 00:59 | -18.38558 | -39.62012 | 6507 ft | 178 kts | 191° |
| 2026-05-05 01:00 | -18.39779 | -39.62385 | 6531 ft | 188 kts | 191° |
| 2026-05-05 01:00 | -18.41057 | -39.62778 | 6540 ft | 193 kts | 191° |
| 2026-05-05 01:00 | -18.42345 | -39.63174 | 6543 ft | 195 kts | 192° |
| 2026-05-05 01:00 | -18.43663 | -39.63580 | 6541 ft | 197 kts | 192° |
| 2026-05-05 01:01 | -18.44974 | -39.63984 | 6548 ft | 198 kts | 192° |
| 2026-05-05 01:01 | -18.46307 | -39.64396 | 6545 ft | 199 kts | 192° |
| 2026-05-05 01:01 | -18.47638 | -39.64806 | 6539 ft | 199 kts | 192° |
| 2026-05-05 01:01 | -18.48957 | -39.65213 | 6537 ft | 199 kts | 192° |
| 2026-05-05 01:02 | -18.50291 | -39.65624 | 6540 ft | 199 kts | 192° |
| 2026-05-05 01:02 | -18.51609 | -39.66032 | 6536 ft | 199 kts | 192° |
| 2026-05-05 01:02 | -18.52951 | -39.66446 | 6534 ft | 199 kts | 192° |
| 2026-05-05 01:02 | -18.54271 | -39.66853 | 6536 ft | 199 kts | 192° |
| 2026-05-05 01:03 | -18.55611 | -39.67267 | 6536 ft | 199 kts | 192° |
| 2026-05-05 01:03 | -18.56926 | -39.67673 | 6537 ft | 199 kts | 192° |
| 2026-05-05 01:03 | -18.58261 | -39.68085 | 6537 ft | 199 kts | 192° |
| 2026-05-05 01:03 | -18.59582 | -39.68493 | 6543 ft | 199 kts | 192° |
| 2026-05-05 01:04 | -18.60922 | -39.68908 | 6536 ft | 199 kts | 192° |
| 2026-05-05 01:04 | -18.63579 | -39.69728 | 6546 ft | 200 kts | 193° |
| 2026-05-05 01:04 | -18.64917 | -39.70143 | 6540 ft | 200 kts | 192° |
| 2026-05-05 01:05 | -18.66245 | -39.70553 | 6540 ft | 200 kts | 192° |
| 2026-05-05 01:05 | -18.67590 | -39.70968 | 6543 ft | 200 kts | 193° |
| 2026-05-05 01:05 | -18.68918 | -39.71379 | 6540 ft | 200 kts | 192° |
| 2026-05-05 01:05 | -18.70251 | -39.71792 | 6539 ft | 200 kts | 192° |
| 2026-05-05 01:06 | -18.71582 | -39.72203 | 6542 ft | 200 kts | 192° |
| 2026-05-05 01:06 | -18.72926 | -39.72619 | 6540 ft | 201 kts | 192° |
| 2026-05-05 01:06 | -18.74266 | -39.73034 | 6540 ft | 201 kts | 192° |
| 2026-05-05 01:06 | -18.75596 | -39.73445 | 6536 ft | 200 kts | 192° |
| 2026-05-05 01:07 | -18.76935 | -39.73861 | 6540 ft | 200 kts | 192° |
| 2026-05-05 01:07 | -18.78275 | -39.74275 | 6537 ft | 201 kts | 193° |
| 2026-05-05 01:07 | -18.79615 | -39.74690 | 6540 ft | 200 kts | 193° |
| 2026-05-05 01:07 | -18.80952 | -39.75104 | 6539 ft | 201 kts | 193° |
| 2026-05-05 01:08 | -18.82294 | -39.75520 | 6542 ft | 201 kts | 193° |
| 2026-05-05 01:08 | -18.83634 | -39.75935 | 6548 ft | 200 kts | 193° |
| 2026-05-05 01:08 | -18.84977 | -39.76351 | 6547 ft | 201 kts | 193° |
| 2026-05-05 01:08 | -18.86322 | -39.76769 | 6544 ft | 201 kts | 193° |
| 2026-05-05 01:09 | -18.87664 | -39.77184 | 6549 ft | 201 kts | 192° |
| 2026-05-05 01:09 | -18.88999 | -39.77597 | 6550 ft | 201 kts | 193° |
| 2026-05-05 01:09 | -18.90339 | -39.78013 | 6552 ft | 202 kts | 193° |
| 2026-05-05 01:09 | -18.91695 | -39.78434 | 6548 ft | 201 kts | 193° |
| 2026-05-05 01:10 | -18.93030 | -39.78848 | 6549 ft | 202 kts | 193° |
| 2026-05-05 01:10 | -18.94383 | -39.79267 | 6554 ft | 201 kts | 193° |
| 2026-05-05 01:10 | -18.95729 | -39.79685 | 6551 ft | 201 kts | 193° |
| 2026-05-05 01:10 | -18.97076 | -39.80103 | 6548 ft | 201 kts | 194° |
| 2026-05-05 01:11 | -18.98406 | -39.80516 | 6548 ft | 200 kts | 194° |
| 2026-05-05 01:11 | -18.99732 | -39.80928 | 6552 ft | 200 kts | 194° |
| 2026-05-05 01:11 | -19.01080 | -39.81346 | 6546 ft | 199 kts | 194° |
| 2026-05-05 01:11 | -19.02402 | -39.81757 | 6549 ft | 200 kts | 193° |
| 2026-05-05 01:12 | -19.03742 | -39.82171 | 6546 ft | 200 kts | 194° |
| 2026-05-05 01:12 | -19.05068 | -39.82584 | 6546 ft | 200 kts | 194° |
| 2026-05-05 01:12 | -19.06408 | -39.83001 | 6546 ft | 200 kts | 194° |
| 2026-05-05 01:12 | -19.07749 | -39.83417 | 6549 ft | 200 kts | 194° |
| 2026-05-05 01:13 | -19.09067 | -39.83827 | 6553 ft | 200 kts | 194° |
| 2026-05-05 01:13 | -19.10412 | -39.84245 | 6556 ft | 200 kts | 194° |
| 2026-05-05 01:13 | -19.11740 | -39.84650 | 6599 ft | 198 kts | 194° |
| 2026-05-05 01:13 | -19.13070 | -39.85065 | 6597 ft | 199 kts | 194° |
| 2026-05-05 01:14 | -19.14390 | -39.85480 | 6595 ft | 200 kts | 194° |
| 2026-05-05 01:14 | -19.15730 | -39.85898 | 6595 ft | 200 kts | 194° |
| 2026-05-05 01:14 | -19.17054 | -39.86310 | 6595 ft | 200 kts | 194° |
| 2026-05-05 01:14 | -19.18403 | -39.86729 | 6596 ft | 201 kts | 194° |
| 2026-05-05 01:15 | -19.19732 | -39.87143 | 6600 ft | 202 kts | 194° |
| 2026-05-05 01:15 | -19.21081 | -39.87563 | 6597 ft | 201 kts | 194° |
| 2026-05-05 01:15 | -19.22410 | -39.87976 | 6596 ft | 200 kts | 194° |
| 2026-05-05 01:15 | -19.23756 | -39.88395 | 6593 ft | 200 kts | 195° |
| 2026-05-05 01:16 | -19.25080 | -39.88808 | 6598 ft | 200 kts | 195° |
| 2026-05-05 01:16 | -19.26423 | -39.89225 | 6592 ft | 201 kts | 195° |
| 2026-05-05 01:16 | -19.27767 | -39.89645 | 6592 ft | 200 kts | 195° |
| 2026-05-05 01:16 | -19.29088 | -39.90057 | 6602 ft | 200 kts | 195° |
| 2026-05-05 01:17 | -19.30424 | -39.90474 | 6596 ft | 200 kts | 195° |
| 2026-05-05 01:17 | -19.31766 | -39.90889 | 6600 ft | 200 kts | 195° |
| 2026-05-05 01:17 | -19.33114 | -39.91310 | 6597 ft | 202 kts | 195° |
| 2026-05-05 01:17 | -19.34457 | -39.91730 | 6596 ft | 202 kts | 195° |
| 2026-05-05 01:18 | -19.35797 | -39.92147 | 6596 ft | 201 kts | 195° |
| 2026-05-05 01:18 | -19.37143 | -39.92566 | 6596 ft | 201 kts | 195° |
| 2026-05-05 01:18 | -19.38489 | -39.92986 | 6596 ft | 202 kts | 195° |
| 2026-05-05 01:18 | -19.39828 | -39.93404 | 6591 ft | 201 kts | 195° |
| 2026-05-05 01:19 | -19.41167 | -39.93822 | 6592 ft | 200 kts | 195° |
| 2026-05-05 01:19 | -19.42506 | -39.94240 | 6591 ft | 199 kts | 195° |
| 2026-05-05 01:19 | -19.43386 | -39.94515 | 6594 ft | 198 kts | 195° |
| 2026-05-05 01:19 | -19.45150 | -39.95066 | 6592 ft | 198 kts | 195° |
| 2026-05-05 01:20 | -19.46478 | -39.95481 | 6594 ft | 198 kts | 195° |
| 2026-05-05 01:20 | -19.47784 | -39.95889 | 6595 ft | 198 kts | 195° |
| 2026-05-05 01:20 | -19.49109 | -39.96302 | 6594 ft | 198 kts | 195° |
| 2026-05-05 01:20 | -19.50422 | -39.96711 | 6594 ft | 198 kts | 195° |
| 2026-05-05 01:21 | -19.51310 | -39.96989 | 6597 ft | 197 kts | 195° |
| 2026-05-05 01:21 | -19.53060 | -39.97536 | 6598 ft | 197 kts | 195° |
| 2026-05-05 01:21 | -19.54380 | -39.97950 | 6595 ft | 197 kts | 195° |
| 2026-05-05 01:21 | -19.55682 | -39.98357 | 6595 ft | 197 kts | 195° |
| 2026-05-05 01:22 | -19.56996 | -39.98768 | 6596 ft | 196 kts | 195° |
| 2026-05-05 01:22 | -19.58297 | -39.99175 | 6593 ft | 196 kts | 195° |
| 2026-05-05 01:22 | -19.59599 | -39.99581 | 6593 ft | 195 kts | 195° |
| 2026-05-05 01:22 | -19.60909 | -39.99991 | 6594 ft | 195 kts | 196° |
| 2026-05-05 01:23 | -19.62215 | -40.00400 | 6597 ft | 195 kts | 195° |
| 2026-05-05 01:23 | -19.63507 | -40.00805 | 6593 ft | 195 kts | 196° |
| 2026-05-05 01:23 | -19.64811 | -40.01215 | 6596 ft | 195 kts | 196° |
| 2026-05-05 01:23 | -19.66114 | -40.01621 | 6597 ft | 194 kts | 196° |
| 2026-05-05 01:24 | -19.67395 | -40.02021 | 6594 ft | 194 kts | 196° |
| 2026-05-05 01:24 | -19.68699 | -40.02430 | 6597 ft | 194 kts | 196° |
| 2026-05-05 01:24 | -19.70000 | -40.02838 | 6592 ft | 195 kts | 196° |
| 2026-05-05 01:24 | -19.71289 | -40.03241 | 6597 ft | 195 kts | 196° |
| 2026-05-05 01:25 | -19.72598 | -40.03652 | 6597 ft | 195 kts | 196° |
| 2026-05-05 01:25 | -19.73888 | -40.04057 | 6594 ft | 195 kts | 196° |
| 2026-05-05 01:25 | -19.75194 | -40.04466 | 6599 ft | 195 kts | 196° |
| 2026-05-05 01:25 | -19.76488 | -40.04871 | 6599 ft | 195 kts | 196° |
| 2026-05-05 01:26 | -19.77801 | -40.05283 | 6601 ft | 196 kts | 196° |
| 2026-05-05 01:26 | -19.79096 | -40.05689 | 6599 ft | 196 kts | 196° |
| 2026-05-05 01:26 | -19.79966 | -40.05961 | 6604 ft | 196 kts | 196° |
| 2026-05-05 01:26 | -19.81280 | -40.06374 | 6606 ft | 197 kts | 196° |
| 2026-05-05 01:27 | -19.82592 | -40.06786 | 6601 ft | 196 kts | 196° |
| 2026-05-05 01:27 | -19.83892 | -40.07194 | 6600 ft | 195 kts | 196° |
| 2026-05-05 01:27 | -19.85195 | -40.07602 | 6595 ft | 195 kts | 196° |
| 2026-05-05 01:27 | -19.86501 | -40.08014 | 6601 ft | 195 kts | 196° |
| 2026-05-05 01:28 | -19.87772 | -40.08479 | 6598 ft | 195 kts | 207° |
| 2026-05-05 01:28 | -19.88938 | -40.09219 | 6603 ft | 195 kts | 210° |
| 2026-05-05 01:28 | -19.90109 | -40.09944 | 6602 ft | 195 kts | 209° |
| 2026-05-05 01:28 | -19.91291 | -40.10670 | 6603 ft | 195 kts | 210° |
| 2026-05-05 01:29 | -19.92462 | -40.11394 | 6597 ft | 195 kts | 210° |
| 2026-05-05 01:29 | -19.93638 | -40.12122 | 6598 ft | 194 kts | 209° |
| 2026-05-05 01:29 | -19.94794 | -40.12837 | 6599 ft | 194 kts | 210° |
| 2026-05-05 01:29 | -19.95953 | -40.13555 | 6599 ft | 193 kts | 210° |
| 2026-05-05 01:30 | -19.97127 | -40.14282 | 6603 ft | 193 kts | 210° |
| 2026-05-05 01:30 | -19.98284 | -40.14998 | 6606 ft | 194 kts | 210° |
| 2026-05-05 01:30 | -19.99441 | -40.15715 | 6607 ft | 193 kts | 210° |
| 2026-05-05 01:30 | -20.00614 | -40.16441 | 6607 ft | 194 kts | 210° |
| 2026-05-05 01:31 | -20.01770 | -40.17157 | 6604 ft | 193 kts | 209° |
| 2026-05-05 01:31 | -20.02929 | -40.17875 | 6611 ft | 194 kts | 210° |
| 2026-05-05 01:31 | -20.04096 | -40.18598 | 6609 ft | 194 kts | 210° |
| 2026-05-05 01:31 | -20.05349 | -40.19128 | 6609 ft | 194 kts | 190° |
| 2026-05-05 01:32 | -20.06691 | -40.19184 | 6609 ft | 195 kts | 181° |
| 2026-05-05 01:32 | -20.08055 | -40.19200 | 6611 ft | 194 kts | 182° |
| 2026-05-05 01:32 | -20.09387 | -40.19219 | 6613 ft | 193 kts | 182° |
| 2026-05-05 01:32 | -20.10735 | -40.19236 | 6611 ft | 193 kts | 181° |
| 2026-05-05 01:33 | -20.12086 | -40.19254 | 6613 ft | 193 kts | 182° |
| 2026-05-05 01:33 | -20.13419 | -40.19272 | 6611 ft | 193 kts | 182° |
| 2026-05-05 01:33 | -20.14774 | -40.19290 | 6613 ft | 193 kts | 181° |
| 2026-05-05 01:33 | -20.16110 | -40.19308 | 6614 ft | 193 kts | 182° |
| 2026-05-05 01:34 | -20.17460 | -40.19325 | 6618 ft | 193 kts | 182° |
| 2026-05-05 01:34 | -20.18792 | -40.19349 | 6610 ft | 193 kts | 184° |
| 2026-05-05 01:34 | -20.20072 | -40.19729 | 6613 ft | 192 kts | 207° |
| 2026-05-05 01:34 | -20.21171 | -40.20542 | 6615 ft | 192 kts | 217° |
| 2026-05-05 01:35 | -20.22244 | -40.21402 | 6619 ft | 193 kts | 216° |
| 2026-05-05 01:35 | -20.23312 | -40.22251 | 6616 ft | 193 kts | 216° |
| 2026-05-05 01:35 | -20.24395 | -40.23113 | 6618 ft | 193 kts | 216° |
| 2026-05-05 01:35 | -20.25463 | -40.23963 | 6620 ft | 195 kts | 216° |
| 2026-05-05 01:36 | -20.26558 | -40.24835 | 6622 ft | 196 kts | 216° |
| 2026-05-05 01:36 | -20.27641 | -40.25697 | 6621 ft | 196 kts | 216° |
| 2026-05-05 01:36 | -20.28749 | -40.26539 | 6620 ft | 195 kts | 210° |
| 2026-05-05 01:36 | -20.29947 | -40.27202 | 6611 ft | 193 kts | 217° |
| 2026-05-05 01:37 | -20.30906 | -40.28192 | 6614 ft | 193 kts | 223° |
| 2026-05-05 01:37 | -20.31935 | -40.29127 | 6622 ft | 194 kts | 217° |
| 2026-05-05 01:37 | -20.33019 | -40.29994 | 6618 ft | 195 kts | 216° |
| 2026-05-05 01:37 | -20.34102 | -40.30846 | 6622 ft | 195 kts | 216° |
| 2026-05-05 01:38 | -20.35206 | -40.31725 | 6619 ft | 195 kts | 216° |
| 2026-05-05 01:38 | -20.36282 | -40.32584 | 6619 ft | 195 kts | 216° |
| 2026-05-05 01:38 | -20.37360 | -40.33443 | 6619 ft | 194 kts | 216° |
| 2026-05-05 01:38 | -20.38444 | -40.34310 | 6615 ft | 194 kts | 217° |
| 2026-05-05 01:39 | -20.39535 | -40.35179 | 6621 ft | 196 kts | 216° |
| 2026-05-05 01:39 | -20.40623 | -40.36048 | 6617 ft | 196 kts | 216° |
| 2026-05-05 01:39 | -20.41708 | -40.36914 | 6618 ft | 197 kts | 217° |
| 2026-05-05 01:39 | -20.42810 | -40.37793 | 6613 ft | 196 kts | 217° |
| 2026-05-05 01:40 | -20.43893 | -40.38659 | 6613 ft | 195 kts | 217° |
| 2026-05-05 01:40 | -20.44986 | -40.39530 | 6617 ft | 194 kts | 217° |
| 2026-05-05 01:40 | -20.46077 | -40.40403 | 6619 ft | 197 kts | 217° |
| 2026-05-05 01:40 | -20.47164 | -40.41272 | 6613 ft | 196 kts | 217° |
| 2026-05-05 01:41 | -20.48263 | -40.42150 | 6619 ft | 198 kts | 217° |
| 2026-05-05 01:41 | -20.49363 | -40.43029 | 6620 ft | 199 kts | 217° |
| 2026-05-05 01:41 | -20.50480 | -40.43920 | 6614 ft | 200 kts | 217° |
| 2026-05-05 01:41 | -20.51576 | -40.44797 | 6614 ft | 199 kts | 217° |
| 2026-05-05 01:42 | -20.52682 | -40.45682 | 6611 ft | 197 kts | 217° |
| 2026-05-05 01:42 | -20.53768 | -40.46551 | 6612 ft | 196 kts | 217° |
| 2026-05-05 01:42 | -20.54860 | -40.47424 | 6615 ft | 196 kts | 217° |
| 2026-05-05 01:42 | -20.55960 | -40.48305 | 6613 ft | 196 kts | 217° |
| 2026-05-05 01:43 | -20.57040 | -40.49168 | 6615 ft | 195 kts | 217° |
| 2026-05-05 01:43 | -20.58130 | -40.50044 | 6610 ft | 195 kts | 217° |
| 2026-05-05 01:43 | -20.59223 | -40.50916 | 6609 ft | 195 kts | 217° |
| 2026-05-05 01:43 | -20.60301 | -40.51778 | 6610 ft | 194 kts | 217° |
| 2026-05-05 01:44 | -20.61389 | -40.52652 | 6613 ft | 195 kts | 217° |
| 2026-05-05 01:44 | -20.62463 | -40.53511 | 6620 ft | 196 kts | 217° |
| 2026-05-05 01:44 | -20.63562 | -40.54391 | 6617 ft | 196 kts | 217° |
| 2026-05-05 01:44 | -20.64653 | -40.55266 | 6619 ft | 196 kts | 217° |
| 2026-05-05 01:45 | -20.65735 | -40.56132 | 6622 ft | 196 kts | 217° |
| 2026-05-05 01:45 | -20.66825 | -40.57007 | 6622 ft | 196 kts | 217° |
| 2026-05-05 01:45 | -20.67924 | -40.57889 | 6621 ft | 196 kts | 217° |
| 2026-05-05 01:45 | -20.69007 | -40.58755 | 6619 ft | 195 kts | 217° |
| 2026-05-05 01:46 | -20.70086 | -40.59620 | 6617 ft | 195 kts | 217° |
| 2026-05-05 01:46 | -20.71176 | -40.60495 | 6620 ft | 196 kts | 217° |
| 2026-05-05 01:46 | -20.72269 | -40.61373 | 6622 ft | 196 kts | 217° |
| 2026-05-05 01:46 | -20.73360 | -40.62248 | 6621 ft | 195 kts | 217° |
| 2026-05-05 01:47 | -20.74439 | -40.63115 | 6620 ft | 195 kts | 217° |
| 2026-05-05 01:47 | -20.75530 | -40.63989 | 6619 ft | 196 kts | 217° |
| 2026-05-05 01:47 | -20.76619 | -40.64863 | 6616 ft | 196 kts | 217° |
| 2026-05-05 01:47 | -20.77696 | -40.65729 | 6617 ft | 195 kts | 217° |
| 2026-05-05 01:48 | -20.78781 | -40.66601 | 6616 ft | 195 kts | 217° |
| 2026-05-05 01:48 | -20.79869 | -40.67475 | 6619 ft | 195 kts | 217° |
| 2026-05-05 01:48 | -20.80958 | -40.68349 | 6617 ft | 195 kts | 217° |
| 2026-05-05 01:48 | -20.82048 | -40.69226 | 6613 ft | 196 kts | 217° |
| 2026-05-05 01:49 | -20.83137 | -40.70102 | 6618 ft | 196 kts | 217° |
| 2026-05-05 01:49 | -20.84227 | -40.70976 | 6615 ft | 196 kts | 217° |
| 2026-05-05 01:49 | -20.85313 | -40.71849 | 6614 ft | 195 kts | 218° |
| 2026-05-05 01:49 | -20.86392 | -40.72717 | 6615 ft | 196 kts | 218° |
| 2026-05-05 01:50 | -20.87478 | -40.73592 | 6615 ft | 196 kts | 217° |
| 2026-05-05 01:50 | -20.88566 | -40.74467 | 6615 ft | 196 kts | 218° |
| 2026-05-05 01:50 | -20.89654 | -40.75342 | 6613 ft | 195 kts | 218° |
| 2026-05-05 01:50 | -20.90742 | -40.76218 | 6614 ft | 196 kts | 218° |
| 2026-05-05 01:51 | -20.91832 | -40.77096 | 6613 ft | 196 kts | 218° |
| 2026-05-05 01:51 | -20.92922 | -40.77973 | 6611 ft | 196 kts | 218° |
| 2026-05-05 01:51 | -20.94011 | -40.78850 | 6610 ft | 196 kts | 218° |
| 2026-05-05 01:51 | -20.95105 | -40.79731 | 6610 ft | 196 kts | 218° |
| 2026-05-05 01:52 | -20.96193 | -40.80607 | 6613 ft | 196 kts | 218° |
| 2026-05-05 01:52 | -20.97283 | -40.81485 | 6611 ft | 196 kts | 218° |
| 2026-05-05 01:52 | -20.98359 | -40.82353 | 6611 ft | 196 kts | 218° |
| 2026-05-05 01:52 | -20.99451 | -40.83233 | 6609 ft | 196 kts | 218° |
| 2026-05-05 01:53 | -21.00539 | -40.84110 | 6613 ft | 196 kts | 218° |
| 2026-05-05 01:53 | -21.01632 | -40.84992 | 6613 ft | 197 kts | 218° |
| 2026-05-05 01:53 | -21.02720 | -40.85868 | 6610 ft | 196 kts | 218° |
| 2026-05-05 01:53 | -21.03815 | -40.86752 | 6607 ft | 196 kts | 218° |
| 2026-05-05 01:54 | -21.04904 | -40.87630 | 6610 ft | 196 kts | 218° |
| 2026-05-05 01:54 | -21.05993 | -40.88509 | 6611 ft | 196 kts | 218° |
| 2026-05-05 01:54 | -21.07084 | -40.89389 | 6611 ft | 196 kts | 218° |
| 2026-05-05 01:54 | -21.08173 | -40.90270 | 6610 ft | 196 kts | 218° |
| 2026-05-05 01:55 | -21.09262 | -40.91148 | 6612 ft | 196 kts | 218° |
| 2026-05-05 01:55 | -21.10351 | -40.92027 | 6610 ft | 196 kts | 218° |
| 2026-05-05 01:55 | -21.11439 | -40.92907 | 6609 ft | 196 kts | 218° |
| 2026-05-05 01:55 | -21.12512 | -40.93772 | 6611 ft | 196 kts | 218° |
| 2026-05-05 01:56 | -21.13601 | -40.94653 | 6611 ft | 196 kts | 218° |
| 2026-05-05 01:56 | -21.14688 | -40.95533 | 6612 ft | 196 kts | 218° |
| 2026-05-05 01:56 | -21.15775 | -40.96409 | 6611 ft | 196 kts | 218° |
| 2026-05-05 01:56 | -21.16863 | -40.97291 | 6613 ft | 196 kts | 218° |
| 2026-05-05 01:57 | -21.17953 | -40.98172 | 6607 ft | 196 kts | 218° |
| 2026-05-05 01:57 | -21.19042 | -40.99052 | 6612 ft | 196 kts | 218° |
| 2026-05-05 01:57 | -21.20132 | -40.99934 | 6613 ft | 196 kts | 218° |
| 2026-05-05 01:57 | -21.21223 | -41.00817 | 6609 ft | 196 kts | 218° |
| 2026-05-05 01:58 | -21.22297 | -41.01687 | 6610 ft | 196 kts | 218° |
| 2026-05-05 01:58 | -21.23397 | -41.02577 | 6608 ft | 196 kts | 218° |
| 2026-05-05 01:58 | -21.24473 | -41.03448 | 6613 ft | 196 kts | 218° |
| 2026-05-05 01:58 | -21.25563 | -41.04330 | 6608 ft | 196 kts | 218° |
| 2026-05-05 01:59 | -21.26655 | -41.05214 | 6609 ft | 197 kts | 218° |
| 2026-05-05 01:59 | -21.27747 | -41.06099 | 6606 ft | 196 kts | 218° |
| 2026-05-05 01:59 | -21.28837 | -41.06982 | 6609 ft | 196 kts | 218° |
| 2026-05-05 01:59 | -21.29927 | -41.07866 | 6607 ft | 196 kts | 218° |
| 2026-05-05 02:00 | -21.31016 | -41.08748 | 6610 ft | 196 kts | 218° |
| 2026-05-05 02:00 | -21.32106 | -41.09632 | 6605 ft | 196 kts | 218° |
| 2026-05-05 02:00 | -21.33191 | -41.10511 | 6610 ft | 196 kts | 218° |
| 2026-05-05 02:00 | -21.34280 | -41.11395 | 6612 ft | 196 kts | 218° |
| 2026-05-05 02:01 | -21.35369 | -41.12277 | 6610 ft | 196 kts | 218° |
| 2026-05-05 02:01 | -21.36452 | -41.13158 | 6608 ft | 196 kts | 219° |
| 2026-05-05 02:01 | -21.37541 | -41.14040 | 6610 ft | 196 kts | 218° |
| 2026-05-05 02:01 | -21.38633 | -41.14927 | 6611 ft | 196 kts | 218° |
| 2026-05-05 02:02 | -21.39721 | -41.15810 | 6609 ft | 196 kts | 218° |
| 2026-05-05 02:02 | -21.40810 | -41.16694 | 6603 ft | 196 kts | 218° |
| 2026-05-05 02:02 | -21.41898 | -41.17577 | 6603 ft | 196 kts | 218° |
| 2026-05-05 02:02 | -21.42972 | -41.18449 | 6605 ft | 196 kts | 218° |
| 2026-05-05 02:03 | -21.44061 | -41.19333 | 6607 ft | 196 kts | 218° |
| 2026-05-05 02:03 | -21.45148 | -41.20219 | 6609 ft | 196 kts | 218° |
| 2026-05-05 02:03 | -21.45885 | -41.20819 | 6612 ft | 197 kts | 218° |
| 2026-05-05 02:03 | -21.46970 | -41.21698 | 6611 ft | 197 kts | 218° |
| 2026-05-05 02:04 | -21.48429 | -41.22882 | 6613 ft | 197 kts | 218° |
| 2026-05-05 02:04 | -21.49520 | -41.23772 | 6611 ft | 197 kts | 218° |
| 2026-05-05 02:04 | -21.50598 | -41.24648 | 6612 ft | 196 kts | 218° |
| 2026-05-05 02:04 | -21.51689 | -41.25536 | 6612 ft | 197 kts | 218° |
| 2026-05-05 02:05 | -21.52780 | -41.26423 | 6613 ft | 197 kts | 218° |
| 2026-05-05 02:05 | -21.53872 | -41.27312 | 6608 ft | 197 kts | 218° |
| 2026-05-05 02:05 | -21.54966 | -41.28202 | 6619 ft | 197 kts | 218° |
| 2026-05-05 02:05 | -21.56061 | -41.29094 | 6611 ft | 197 kts | 218° |
| 2026-05-05 02:06 | -21.57154 | -41.29983 | 6616 ft | 197 kts | 218° |
| 2026-05-05 02:06 | -21.58250 | -41.30876 | 6611 ft | 197 kts | 218° |
| 2026-05-05 02:06 | -21.59344 | -41.31767 | 6607 ft | 197 kts | 218° |
| 2026-05-05 02:06 | -21.60437 | -41.32658 | 6611 ft | 197 kts | 218° |
| 2026-05-05 02:07 | -21.61532 | -41.33551 | 6611 ft | 197 kts | 218° |
| 2026-05-05 02:07 | -21.62621 | -41.34438 | 6611 ft | 197 kts | 218° |
| 2026-05-05 02:07 | -21.63345 | -41.35030 | 6612 ft | 197 kts | 218° |
| 2026-05-05 02:07 | -21.64806 | -41.36219 | 6609 ft | 198 kts | 218° |
| 2026-05-05 02:08 | -21.65902 | -41.37113 | 6612 ft | 197 kts | 218° |
| 2026-05-05 02:08 | -21.66995 | -41.38004 | 6611 ft | 197 kts | 218° |
| 2026-05-05 02:08 | -21.68087 | -41.38896 | 6611 ft | 197 kts | 218° |
| 2026-05-05 02:08 | -21.69184 | -41.39790 | 6613 ft | 197 kts | 218° |
| 2026-05-05 02:09 | -21.70272 | -41.40680 | 6611 ft | 197 kts | 218° |
| 2026-05-05 02:09 | -21.71351 | -41.41559 | 6613 ft | 197 kts | 218° |
| 2026-05-05 02:09 | -21.72441 | -41.42449 | 6611 ft | 197 kts | 218° |
| 2026-05-05 02:09 | -21.73535 | -41.43342 | 6609 ft | 197 kts | 218° |
| 2026-05-05 02:10 | -21.74624 | -41.44233 | 6615 ft | 197 kts | 218° |
| 2026-05-05 02:10 | -21.75718 | -41.45126 | 6612 ft | 197 kts | 218° |
| 2026-05-05 02:10 | -21.76813 | -41.46021 | 6614 ft | 197 kts | 218° |
| 2026-05-05 02:10 | -21.77537 | -41.46612 | 6611 ft | 197 kts | 218° |
| 2026-05-05 02:11 | -21.78989 | -41.47799 | 6610 ft | 197 kts | 218° |
| 2026-05-05 02:11 | -21.80083 | -41.48694 | 6617 ft | 197 kts | 218° |
| 2026-05-05 02:11 | -21.80806 | -41.49285 | 6615 ft | 197 kts | 218° |
| 2026-05-05 02:11 | -21.81902 | -41.50181 | 6616 ft | 198 kts | 218° |
| 2026-05-05 02:12 | -21.82997 | -41.51077 | 6615 ft | 197 kts | 218° |
| 2026-05-05 02:12 | -21.85180 | -41.52867 | 6612 ft | 197 kts | 218° |
| 2026-05-05 02:12 | -21.86273 | -41.53763 | 6607 ft | 198 kts | 218° |
| 2026-05-05 02:13 | -21.87368 | -41.54658 | 6608 ft | 197 kts | 218° |
| 2026-05-05 02:13 | -21.88461 | -41.55552 | 6613 ft | 197 kts | 218° |
| 2026-05-05 02:13 | -21.89553 | -41.56448 | 6614 ft | 197 kts | 218° |
| 2026-05-05 02:13 | -21.90645 | -41.57341 | 6614 ft | 197 kts | 218° |
| 2026-05-05 02:14 | -21.91735 | -41.58235 | 6616 ft | 197 kts | 218° |
| 2026-05-05 02:14 | -21.92816 | -41.59121 | 6612 ft | 198 kts | 218° |
| 2026-05-05 02:14 | -21.93913 | -41.60019 | 6610 ft | 197 kts | 218° |
| 2026-05-05 02:14 | -21.95001 | -41.60911 | 6614 ft | 196 kts | 218° |
| 2026-05-05 02:15 | -21.96090 | -41.61805 | 6614 ft | 197 kts | 218° |
| 2026-05-05 02:15 | -21.97181 | -41.62700 | 6614 ft | 197 kts | 218° |
| 2026-05-05 02:15 | -21.98273 | -41.63595 | 6613 ft | 197 kts | 218° |
| 2026-05-05 02:15 | -21.99367 | -41.64492 | 6614 ft | 197 kts | 218° |
| 2026-05-05 02:16 | -22.00460 | -41.65388 | 6612 ft | 197 kts | 218° |
| 2026-05-05 02:16 | -22.01551 | -41.66284 | 6614 ft | 197 kts | 218° |
| 2026-05-05 02:16 | -22.02646 | -41.67184 | 6609 ft | 198 kts | 218° |
| 2026-05-05 02:16 | -22.03726 | -41.68071 | 6610 ft | 197 kts | 218° |
| 2026-05-05 02:17 | -22.04824 | -41.68972 | 6610 ft | 198 kts | 218° |
| 2026-05-05 02:17 | -22.05920 | -41.69873 | 6604 ft | 197 kts | 218° |
| 2026-05-05 02:17 | -22.07016 | -41.70772 | 6607 ft | 198 kts | 218° |
| 2026-05-05 02:17 | -22.08113 | -41.71676 | 6606 ft | 198 kts | 218° |
| 2026-05-05 02:18 | -22.09210 | -41.72575 | 6604 ft | 198 kts | 218° |
| 2026-05-05 02:18 | -22.10309 | -41.73479 | 6600 ft | 198 kts | 218° |
| 2026-05-05 02:18 | -22.11402 | -41.74378 | 6596 ft | 197 kts | 218° |
| 2026-05-05 02:18 | -22.12493 | -41.75275 | 6597 ft | 197 kts | 218° |
| 2026-05-05 02:19 | -22.13584 | -41.76173 | 6595 ft | 197 kts | 218° |
| 2026-05-05 02:19 | -22.14660 | -41.77059 | 6595 ft | 197 kts | 218° |
| 2026-05-05 02:19 | -22.15752 | -41.77957 | 6591 ft | 197 kts | 217° |
| 2026-05-05 02:19 | -22.16846 | -41.78857 | 6593 ft | 197 kts | 217° |
| 2026-05-05 02:20 | -22.17937 | -41.79756 | 6592 ft | 198 kts | 217° |
| 2026-05-05 02:20 | -22.19035 | -41.80660 | 6590 ft | 198 kts | 217° |
| 2026-05-05 02:20 | -22.20132 | -41.81563 | 6590 ft | 198 kts | 217° |
| 2026-05-05 02:20 | -22.21225 | -41.82465 | 6587 ft | 197 kts | 217° |
| 2026-05-05 02:21 | -22.22316 | -41.83360 | 6591 ft | 197 kts | 217° |
| 2026-05-05 02:21 | -22.23410 | -41.84262 | 6588 ft | 198 kts | 217° |
| 2026-05-05 02:21 | -22.24491 | -41.85155 | 6586 ft | 198 kts | 217° |
| 2026-05-05 02:21 | -22.25586 | -41.86057 | 6589 ft | 197 kts | 217° |
| 2026-05-05 02:22 | -22.26676 | -41.86956 | 6585 ft | 197 kts | 217° |
| 2026-05-05 02:22 | -22.27765 | -41.87855 | 6586 ft | 197 kts | 217° |
| 2026-05-05 02:22 | -22.28857 | -41.88755 | 6588 ft | 197 kts | 217° |
| 2026-05-05 02:22 | -22.29949 | -41.89656 | 6586 ft | 197 kts | 217° |
| 2026-05-05 02:23 | -22.31038 | -41.90554 | 6588 ft | 197 kts | 217° |
| 2026-05-05 02:23 | -22.32128 | -41.91455 | 6591 ft | 198 kts | 217° |
| 2026-05-05 02:23 | -22.33223 | -41.92359 | 6594 ft | 199 kts | 217° |
| 2026-05-05 02:23 | -22.34318 | -41.93263 | 6593 ft | 198 kts | 217° |
| 2026-05-05 02:24 | -22.35416 | -41.94170 | 6595 ft | 198 kts | 217° |
| 2026-05-05 02:24 | -22.36514 | -41.95076 | 6591 ft | 199 kts | 217° |
| 2026-05-05 02:24 | -22.37612 | -41.95982 | 6598 ft | 198 kts | 217° |
| 2026-05-05 02:24 | -22.38708 | -41.96890 | 6595 ft | 198 kts | 217° |
| 2026-05-05 02:25 | -22.39807 | -41.97797 | 6598 ft | 198 kts | 217° |
| 2026-05-05 02:25 | -22.40886 | -41.98689 | 6596 ft | 198 kts | 217° |
| 2026-05-05 02:25 | -22.41992 | -41.99602 | 6601 ft | 198 kts | 218° |
| 2026-05-05 02:25 | -22.43074 | -42.00499 | 6603 ft | 198 kts | 218° |
| 2026-05-05 02:26 | -22.44171 | -42.01405 | 6602 ft | 199 kts | 217° |
| 2026-05-05 02:26 | -22.45268 | -42.02312 | 6607 ft | 199 kts | 218° |
| 2026-05-05 02:26 | -22.46363 | -42.03221 | 6606 ft | 198 kts | 218° |
| 2026-05-05 02:26 | -22.47463 | -42.04131 | 6604 ft | 198 kts | 217° |
| 2026-05-05 02:27 | -22.48556 | -42.05035 | 6604 ft | 198 kts | 217° |
| 2026-05-05 02:27 | -22.49647 | -42.05938 | 6606 ft | 197 kts | 218° |
| 2026-05-05 02:27 | -22.50737 | -42.06843 | 6605 ft | 198 kts | 218° |
| 2026-05-05 02:27 | -22.51811 | -42.07733 | 6605 ft | 197 kts | 217° |
| 2026-05-05 02:28 | -22.52885 | -42.08687 | 6608 ft | 197 kts | 222° |
| 2026-05-05 02:28 | -22.53890 | -42.09658 | 6608 ft | 197 kts | 221° |
| 2026-05-05 02:28 | -22.54923 | -42.10641 | 6608 ft | 197 kts | 221° |
| 2026-05-05 02:28 | -22.55954 | -42.11623 | 6608 ft | 197 kts | 221° |
| 2026-05-05 02:29 | -22.56983 | -42.12608 | 6610 ft | 197 kts | 221° |
| 2026-05-05 02:29 | -22.58020 | -42.13600 | 6516 ft | 201 kts | 221° |
| 2026-05-05 02:29 | -22.59081 | -42.14616 | 6378 ft | 204 kts | 221° |
| 2026-05-05 02:29 | -22.60149 | -42.15637 | 6272 ft | 206 kts | 221° |
| 2026-05-05 02:30 | -22.61225 | -42.16666 | 6144 ft | 206 kts | 221° |
| 2026-05-05 02:30 | -22.62300 | -42.17696 | 6014 ft | 206 kts | 221° |
| 2026-05-05 02:30 | -22.63375 | -42.18727 | 5897 ft | 207 kts | 221° |
| 2026-05-05 02:30 | -22.64451 | -42.19758 | 5774 ft | 207 kts | 221° |
| 2026-05-05 02:31 | -22.65528 | -42.20790 | 5649 ft | 206 kts | 221° |
| 2026-05-05 02:31 | -22.66604 | -42.21822 | 5533 ft | 207 kts | 222° |
| 2026-05-05 02:31 | -22.67668 | -42.22842 | 5413 ft | 207 kts | 222° |
| 2026-05-05 02:31 | -22.68750 | -42.23879 | 5249 ft | 208 kts | 222° |
| 2026-05-05 02:32 | -22.69839 | -42.24924 | 5080 ft | 209 kts | 222° |
| 2026-05-05 02:32 | -22.70929 | -42.25970 | 4907 ft | 209 kts | 223° |
| 2026-05-05 02:32 | -22.72021 | -42.27019 | 4733 ft | 210 kts | 222° |
| 2026-05-05 02:32 | -22.73118 | -42.28073 | 4559 ft | 212 kts | 223° |
| 2026-05-05 02:33 | -22.74225 | -42.29135 | 4388 ft | 214 kts | 222° |
| 2026-05-05 02:33 | -22.75343 | -42.30208 | 4208 ft | 215 kts | 223° |
| 2026-05-05 02:33 | -22.76464 | -42.31287 | 4042 ft | 216 kts | 222° |
| 2026-05-05 02:33 | -22.77589 | -42.32367 | 3872 ft | 216 kts | 223° |
| 2026-05-05 02:34 | -22.78718 | -42.33452 | 3705 ft | 218 kts | 222° |
| 2026-05-05 02:34 | -22.79854 | -42.34545 | 3531 ft | 218 kts | 222° |
| 2026-05-05 02:34 | -22.80969 | -42.35615 | 3468 ft | 214 kts | 222° |
| 2026-05-05 02:34 | -22.82072 | -42.36677 | 3464 ft | 210 kts | 222° |
| 2026-05-05 02:35 | -22.83163 | -42.37727 | 3456 ft | 209 kts | 222° |
| 2026-05-05 02:35 | -22.84245 | -42.38770 | 3459 ft | 209 kts | 223° |
| 2026-05-05 02:35 | -22.85332 | -42.39815 | 3459 ft | 209 kts | 223° |
| 2026-05-05 02:35 | -22.86412 | -42.40855 | 3454 ft | 208 kts | 222° |
| 2026-05-05 02:36 | -22.87495 | -42.41898 | 3453 ft | 208 kts | 223° |
| 2026-05-05 02:36 | -22.88580 | -42.42942 | 3456 ft | 209 kts | 222° |
| 2026-05-05 02:36 | -22.89658 | -42.43983 | 3530 ft | 205 kts | 223° |
| 2026-05-05 02:36 | -22.90721 | -42.45009 | 3557 ft | 205 kts | 223° |
| 2026-05-05 02:37 | -22.91795 | -42.46042 | 3554 ft | 207 kts | 223° |
| 2026-05-05 02:37 | -22.92872 | -42.47079 | 3557 ft | 207 kts | 223° |
| 2026-05-05 02:37 | -22.93953 | -42.48124 | 3557 ft | 209 kts | 223° |
| 2026-05-05 02:37 | -22.95027 | -42.49178 | 3559 ft | 207 kts | 227° |
| 2026-05-05 02:38 | -22.95781 | -42.50482 | 3547 ft | 203 kts | 251° |
| 2026-05-05 02:38 | -22.96101 | -42.51960 | 3555 ft | 201 kts | 262° |
| 2026-05-05 02:38 | -22.96340 | -42.53441 | 3559 ft | 202 kts | 263° |
| 2026-05-05 02:38 | -22.96594 | -42.54941 | 3547 ft | 202 kts | 263° |
| 2026-05-05 02:39 | -22.96790 | -42.56142 | 3555 ft | 201 kts | 262° |
| 2026-05-05 02:39 | -22.97036 | -42.57639 | 3553 ft | 201 kts | 262° |
| 2026-05-05 02:39 | -22.97282 | -42.59135 | 3555 ft | 202 kts | 262° |
| 2026-05-05 02:39 | -22.97527 | -42.60632 | 3557 ft | 201 kts | 263° |
| 2026-05-05 02:40 | -22.97773 | -42.62131 | 3557 ft | 202 kts | 262° |
| 2026-05-05 02:40 | -22.98019 | -42.63627 | 3559 ft | 202 kts | 262° |
| 2026-05-05 02:40 | -22.98266 | -42.65124 | 3557 ft | 201 kts | 262° |
| 2026-05-05 02:40 | -22.98511 | -42.66622 | 3554 ft | 201 kts | 262° |
| 2026-05-05 02:41 | -22.98755 | -42.68111 | 3548 ft | 201 kts | 262° |
| 2026-05-05 02:41 | -22.98995 | -42.69582 | 3551 ft | 200 kts | 261° |
| 2026-05-05 02:41 | -22.99238 | -42.71061 | 3552 ft | 199 kts | 262° |
| 2026-05-05 02:41 | -22.99479 | -42.72541 | 3555 ft | 199 kts | 262° |
| 2026-05-05 02:42 | -22.99724 | -42.74024 | 3551 ft | 199 kts | 262° |
| 2026-05-05 02:42 | -22.99966 | -42.75506 | 3488 ft | 202 kts | 262° |
| 2026-05-05 02:42 | -23.00216 | -42.77044 | 3247 ft | 210 kts | 262° |
| 2026-05-05 02:42 | -23.00474 | -42.78621 | 3009 ft | 214 kts | 263° |
| 2026-05-05 02:43 | -23.00735 | -42.80228 | 2768 ft | 217 kts | 263° |
| 2026-05-05 02:43 | -23.00998 | -42.81839 | 2558 ft | 216 kts | 262° |
| 2026-05-05 02:43 | -23.01258 | -42.83421 | 2546 ft | 210 kts | 262° |
| 2026-05-05 02:43 | -23.01510 | -42.84963 | 2546 ft | 205 kts | 263° |
| 2026-05-05 02:44 | -23.01754 | -42.86473 | 2537 ft | 202 kts | 263° |
| 2026-05-05 02:44 | -23.01995 | -42.87968 | 2533 ft | 200 kts | 263° |
| 2026-05-05 02:44 | -23.02238 | -42.89456 | 2533 ft | 200 kts | 263° |
| 2026-05-05 02:44 | -23.02476 | -42.90922 | 2530 ft | 200 kts | 263° |
| 2026-05-05 02:45 | -23.02717 | -42.92405 | 2527 ft | 199 kts | 262° |
| 2026-05-05 02:45 | -23.02957 | -42.93890 | 2532 ft | 200 kts | 263° |
| 2026-05-05 02:45 | -23.03197 | -42.95375 | 2532 ft | 200 kts | 262° |
| 2026-05-05 02:45 | -23.03438 | -42.96863 | 2530 ft | 200 kts | 263° |
| 2026-05-05 02:46 | -23.03680 | -42.98356 | 2535 ft | 201 kts | 263° |
| 2026-05-05 02:46 | -23.03922 | -42.99855 | 2531 ft | 201 kts | 262° |
| 2026-05-05 02:46 | -23.04121 | -43.01358 | 2531 ft | 201 kts | 267° |
| 2026-05-05 02:46 | -23.04278 | -43.02843 | 2530 ft | 201 kts | 265° |
| 2026-05-05 02:47 | -23.04454 | -43.04347 | 2532 ft | 200 kts | 266° |
| 2026-05-05 02:47 | -23.04621 | -43.05845 | 2530 ft | 200 kts | 266° |
| 2026-05-05 02:47 | -23.04787 | -43.07345 | 2530 ft | 200 kts | 266° |
| 2026-05-05 02:47 | -23.04953 | -43.08845 | 2531 ft | 200 kts | 266° |
| 2026-05-05 02:48 | -23.05118 | -43.10350 | 2526 ft | 199 kts | 266° |
| 2026-05-05 02:48 | -23.05282 | -43.11843 | 2533 ft | 200 kts | 267° |
| 2026-05-05 02:48 | -23.05448 | -43.13348 | 2529 ft | 200 kts | 266° |
| 2026-05-05 02:48 | -23.05615 | -43.14851 | 2533 ft | 201 kts | 266° |
| 2026-05-05 02:49 | -23.05778 | -43.16352 | 2541 ft | 201 kts | 266° |
| 2026-05-05 02:49 | -23.05944 | -43.17859 | 2536 ft | 200 kts | 267° |
| 2026-05-05 02:49 | -23.06109 | -43.19363 | 2538 ft | 200 kts | 265° |
| 2026-05-05 02:49 | -23.06276 | -43.20869 | 2536 ft | 201 kts | 265° |
| 2026-05-05 02:50 | -23.06438 | -43.22355 | 2535 ft | 201 kts | 266° |
| 2026-05-05 02:50 | -23.06602 | -43.23859 | 2533 ft | 200 kts | 266° |
| 2026-05-05 02:50 | -23.06766 | -43.25358 | 2532 ft | 199 kts | 266° |
| 2026-05-05 02:50 | -23.06929 | -43.26852 | 2538 ft | 199 kts | 265° |
| 2026-05-05 02:51 | -23.07093 | -43.28339 | 2536 ft | 198 kts | 266° |
| 2026-05-05 02:51 | -23.07252 | -43.29821 | 2534 ft | 198 kts | 265° |
| 2026-05-05 02:51 | -23.07415 | -43.31306 | 2537 ft | 197 kts | 266° |
| 2026-05-05 02:51 | -23.07577 | -43.32789 | 2540 ft | 197 kts | 266° |
| 2026-05-05 02:52 | -23.07739 | -43.34268 | 2541 ft | 196 kts | 266° |
| 2026-05-05 02:52 | -23.07898 | -43.35741 | 2545 ft | 197 kts | 267° |
| 2026-05-05 02:52 | -23.08057 | -43.37219 | 2545 ft | 197 kts | 268° |
| 2026-05-05 02:52 | -23.08217 | -43.38687 | 2542 ft | 198 kts | 268° |
| 2026-05-05 02:53 | -23.08378 | -43.40168 | 2545 ft | 198 kts | 266° |
| 2026-05-05 02:53 | -23.08541 | -43.41658 | 2544 ft | 198 kts | 267° |
| 2026-05-05 02:53 | -23.08701 | -43.43140 | 2547 ft | 198 kts | 266° |
| 2026-05-05 02:53 | -23.08860 | -43.44625 | 2542 ft | 198 kts | 266° |
| 2026-05-05 02:54 | -23.09021 | -43.46106 | 2543 ft | 198 kts | 266° |
| 2026-05-05 02:54 | -23.09193 | -43.47586 | 2537 ft | 197 kts | 263° |
| 2026-05-05 02:54 | -23.09536 | -43.49036 | 2541 ft | 198 kts | 258° |
| 2026-05-05 02:54 | -23.09893 | -43.50488 | 2540 ft | 199 kts | 258° |
| 2026-05-05 02:55 | -23.10239 | -43.51938 | 2536 ft | 198 kts | 259° |
| 2026-05-05 02:55 | -23.10585 | -43.53386 | 2535 ft | 198 kts | 259° |
| 2026-05-05 02:55 | -23.10931 | -43.54824 | 2536 ft | 196 kts | 258° |
| 2026-05-05 02:55 | -23.11272 | -43.56245 | 2535 ft | 197 kts | 258° |
| 2026-05-05 02:56 | -23.11620 | -43.57696 | 2532 ft | 197 kts | 258° |
| 2026-05-05 02:56 | -23.11960 | -43.59122 | 2535 ft | 198 kts | 258° |
| 2026-05-05 02:56 | -23.12309 | -43.60570 | 2538 ft | 197 kts | 259° |
| 2026-05-05 02:56 | -23.12655 | -43.62021 | 2540 ft | 198 kts | 258° |
| 2026-05-05 02:57 | -23.13004 | -43.63480 | 2535 ft | 198 kts | 259° |
| 2026-05-05 02:57 | -23.13351 | -43.64931 | 2539 ft | 198 kts | 259° |
| 2026-05-05 02:57 | -23.13700 | -43.66388 | 2535 ft | 199 kts | 258° |
| 2026-05-05 02:57 | -23.13930 | -43.67352 | 2536 ft | 199 kts | 258° |
| 2026-05-05 02:58 | -23.14279 | -43.68813 | 2536 ft | 199 kts | 259° |
| 2026-05-05 02:58 | -23.14627 | -43.70266 | 2536 ft | 198 kts | 259° |
| 2026-05-05 02:58 | -23.14973 | -43.71718 | 2533 ft | 199 kts | 259° |
| 2026-05-05 02:58 | -23.15322 | -43.73181 | 2534 ft | 200 kts | 260° |
| 2026-05-05 02:59 | -23.15670 | -43.74639 | 2532 ft | 200 kts | 261° |
| 2026-05-05 02:59 | -23.16018 | -43.76100 | 2535 ft | 199 kts | 259° |
| 2026-05-05 02:59 | -23.16366 | -43.77559 | 2537 ft | 199 kts | 259° |
| 2026-05-05 02:59 | -23.16716 | -43.79016 | 2538 ft | 199 kts | 259° |
| 2026-05-05 03:00 | -23.17059 | -43.80468 | 2534 ft | 199 kts | 260° |
| 2026-05-05 03:00 | -23.17406 | -43.81929 | 2531 ft | 199 kts | 259° |
| 2026-05-05 03:00 | -23.17748 | -43.83364 | 2531 ft | 198 kts | 259° |
| 2026-05-05 03:00 | -23.18091 | -43.84804 | 2532 ft | 197 kts | 260° |
| 2026-05-05 03:01 | -23.18433 | -43.86253 | 2532 ft | 198 kts | 259° |
| 2026-05-05 03:01 | -23.18779 | -43.87705 | 2528 ft | 198 kts | 259° |
| 2026-05-05 03:01 | -23.19125 | -43.89161 | 2529 ft | 199 kts | 259° |
| 2026-05-05 03:01 | -23.19472 | -43.90621 | 2534 ft | 199 kts | 260° |
| 2026-05-05 03:02 | -23.19818 | -43.92079 | 2530 ft | 199 kts | 259° |
| 2026-05-05 03:02 | -23.20164 | -43.93541 | 2532 ft | 199 kts | 260° |
| 2026-05-05 03:02 | -23.20505 | -43.94978 | 2527 ft | 199 kts | 260° |
| 2026-05-05 03:02 | -23.20850 | -43.96438 | 2529 ft | 200 kts | 258° |
| 2026-05-05 03:03 | -23.21196 | -43.97894 | 2525 ft | 199 kts | 260° |
| 2026-05-05 03:03 | -23.21542 | -43.99354 | 2524 ft | 199 kts | 259° |
| 2026-05-05 03:03 | -23.21886 | -44.00812 | 2531 ft | 198 kts | 259° |
| 2026-05-05 03:03 | -23.22231 | -44.02272 | 2526 ft | 200 kts | 259° |
| 2026-05-05 03:04 | -23.22578 | -44.03741 | 2525 ft | 200 kts | 259° |
| 2026-05-05 03:04 | -23.22924 | -44.05206 | 2522 ft | 200 kts | 259° |
| 2026-05-05 03:04 | -23.23270 | -44.06671 | 2526 ft | 200 kts | 259° |
| 2026-05-05 03:04 | -23.23617 | -44.08139 | 2522 ft | 200 kts | 260° |
| 2026-05-05 03:05 | -23.23957 | -44.09580 | 2524 ft | 198 kts | 258° |
| 2026-05-05 03:05 | -23.24300 | -44.11035 | 2527 ft | 199 kts | 259° |
| 2026-05-05 03:05 | -23.24621 | -44.12498 | 2522 ft | 197 kts | 263° |
| 2026-05-05 03:05 | -23.24875 | -44.13957 | 2522 ft | 197 kts | 262° |
| 2026-05-05 03:06 | -23.25153 | -44.15425 | 2527 ft | 197 kts | 262° |
| 2026-05-05 03:06 | -23.25424 | -44.16888 | 2520 ft | 199 kts | 262° |
| 2026-05-05 03:06 | -23.25692 | -44.18359 | 2525 ft | 197 kts | 262° |
| 2026-05-05 03:06 | -23.25960 | -44.19828 | 2521 ft | 198 kts | 262° |
| 2026-05-05 03:07 | -23.26229 | -44.21296 | 2522 ft | 198 kts | 262° |
| 2026-05-05 03:07 | -23.26497 | -44.22773 | 2521 ft | 199 kts | 262° |
| 2026-05-05 03:07 | -23.26767 | -44.24245 | 2522 ft | 199 kts | 262° |
| 2026-05-05 03:07 | -23.27036 | -44.25722 | 2526 ft | 199 kts | 262° |
| 2026-05-05 03:08 | -23.27302 | -44.27183 | 2522 ft | 199 kts | 262° |
| 2026-05-05 03:08 | -23.27570 | -44.28660 | 2522 ft | 199 kts | 261° |
| 2026-05-05 03:08 | -23.27840 | -44.30138 | 2519 ft | 199 kts | 262° |
| 2026-05-05 03:08 | -23.28109 | -44.31620 | 2522 ft | 200 kts | 261° |
| 2026-05-05 03:09 | -23.28378 | -44.33096 | 2521 ft | 199 kts | 262° |
| 2026-05-05 03:09 | -23.28646 | -44.34574 | 2522 ft | 198 kts | 262° |
| 2026-05-05 03:09 | -23.28914 | -44.36046 | 2520 ft | 199 kts | 262° |
| 2026-05-05 03:09 | -23.29179 | -44.37513 | 2521 ft | 198 kts | 262° |
| 2026-05-05 03:10 | -23.29446 | -44.38985 | 2519 ft | 197 kts | 261° |
| 2026-05-05 03:10 | -23.29710 | -44.40446 | 2519 ft | 197 kts | 261° |
| 2026-05-05 03:10 | -23.29975 | -44.41905 | 2521 ft | 197 kts | 262° |
| 2026-05-05 03:10 | -23.30237 | -44.43351 | 2521 ft | 197 kts | 261° |
| 2026-05-05 03:11 | -23.30503 | -44.44813 | 2515 ft | 197 kts | 260° |
| 2026-05-05 03:11 | -23.30949 | -44.46227 | 2521 ft | 197 kts | 251° |
| 2026-05-05 03:11 | -23.31442 | -44.47617 | 2523 ft | 198 kts | 252° |
| 2026-05-05 03:11 | -23.31924 | -44.49018 | 2519 ft | 198 kts | 252° |
| 2026-05-05 03:12 | -23.32406 | -44.50422 | 2523 ft | 199 kts | 252° |
| 2026-05-05 03:12 | -23.32894 | -44.51835 | 2524 ft | 199 kts | 252° |
| 2026-05-05 03:12 | -23.33383 | -44.53250 | 2523 ft | 200 kts | 252° |
| 2026-05-05 03:12 | -23.33865 | -44.54649 | 2522 ft | 200 kts | 251° |
| 2026-05-05 03:13 | -23.34353 | -44.56068 | 2527 ft | 201 kts | 252° |
| 2026-05-05 03:13 | -23.34845 | -44.57494 | 2526 ft | 201 kts | 252° |
| 2026-05-05 03:13 | -23.35333 | -44.58909 | 2514 ft | 199 kts | 251° |
| 2026-05-05 03:13 | -23.35810 | -44.60293 | 2529 ft | 195 kts | 252° |
| 2026-05-05 03:14 | -23.36282 | -44.61670 | 2524 ft | 195 kts | 252° |
| 2026-05-05 03:14 | -23.36762 | -44.63065 | 2524 ft | 198 kts | 252° |
| 2026-05-05 03:14 | -23.37248 | -44.64478 | 2526 ft | 199 kts | 252° |
| 2026-05-05 03:14 | -23.37735 | -44.65894 | 2530 ft | 199 kts | 252° |
| 2026-05-05 03:15 | -23.38215 | -44.67285 | 2527 ft | 199 kts | 252° |
| 2026-05-05 03:15 | -23.38700 | -44.68700 | 2527 ft | 199 kts | 252° |
| 2026-05-05 03:15 | -23.39186 | -44.70113 | 2524 ft | 200 kts | 252° |
| 2026-05-05 03:15 | -23.39670 | -44.71525 | 2525 ft | 199 kts | 251° |
| 2026-05-05 03:16 | -23.40154 | -44.72936 | 2523 ft | 199 kts | 252° |
| 2026-05-05 03:16 | -23.40637 | -44.74343 | 2524 ft | 198 kts | 252° |
| 2026-05-05 03:16 | -23.41115 | -44.75739 | 2511 ft | 197 kts | 251° |
| 2026-05-05 03:16 | -23.41599 | -44.77145 | 2522 ft | 198 kts | 251° |
| 2026-05-05 03:17 | -23.42078 | -44.78545 | 2528 ft | 197 kts | 251° |
| 2026-05-05 03:17 | -23.42550 | -44.79923 | 2674 ft | 191 kts | 252° |
| 2026-05-05 03:17 | -23.43005 | -44.81250 | 2812 ft | 188 kts | 251° |
| 2026-05-05 03:17 | -23.43461 | -44.82586 | 2957 ft | 188 kts | 251° |
| 2026-05-05 03:18 | -23.43924 | -44.83938 | 3107 ft | 188 kts | 251° |
| 2026-05-05 03:18 | -23.44376 | -44.85258 | 3247 ft | 188 kts | 251° |
| 2026-05-05 03:18 | -23.44829 | -44.86587 | 3396 ft | 187 kts | 251° |
| 2026-05-05 03:18 | -23.45282 | -44.87911 | 3540 ft | 186 kts | 251° |
| 2026-05-05 03:19 | -23.46183 | -44.90545 | 3828 ft | 186 kts | 251° |
| 2026-05-05 03:19 | -23.46634 | -44.91865 | 3974 ft | 186 kts | 251° |
| 2026-05-05 03:19 | -23.47085 | -44.93186 | 4120 ft | 186 kts | 251° |
| 2026-05-05 03:20 | -23.47534 | -44.94502 | 4265 ft | 185 kts | 251° |
| 2026-05-05 03:20 | -23.47983 | -44.95816 | 4410 ft | 185 kts | 251° |
| 2026-05-05 03:20 | -23.48438 | -44.97150 | 4424 ft | 191 kts | 251° |
| 2026-05-05 03:20 | -23.48904 | -44.98516 | 4427 ft | 194 kts | 251° |
| 2026-05-05 03:21 | -23.49375 | -44.99895 | 4430 ft | 195 kts | 251° |
| 2026-05-05 03:21 | -23.49848 | -45.01282 | 4431 ft | 196 kts | 251° |
| 2026-05-05 03:21 | -23.50322 | -45.02673 | 4432 ft | 196 kts | 251° |
| 2026-05-05 03:21 | -23.50797 | -45.04067 | 4435 ft | 196 kts | 251° |
| 2026-05-05 03:22 | -23.51272 | -45.05460 | 4439 ft | 196 kts | 251° |
| 2026-05-05 03:22 | -23.51740 | -45.06835 | 4438 ft | 196 kts | 251° |
| 2026-05-05 03:22 | -23.52172 | -45.08247 | 4436 ft | 196 kts | 260° |
| 2026-05-05 03:22 | -23.52218 | -45.09725 | 4432 ft | 195 kts | 271° |
| 2026-05-05 03:23 | -23.52236 | -45.11206 | 4437 ft | 195 kts | 270° |
| 2026-05-05 03:23 | -23.52261 | -45.12688 | 4435 ft | 196 kts | 270° |
| 2026-05-05 03:23 | -23.52281 | -45.14169 | 4434 ft | 195 kts | 270° |
| 2026-05-05 03:23 | -23.52299 | -45.15646 | 4434 ft | 195 kts | 270° |
| 2026-05-05 03:24 | -23.52318 | -45.17123 | 4435 ft | 194 kts | 270° |
| 2026-05-05 03:24 | -23.52337 | -45.18594 | 4435 ft | 194 kts | 270° |
| 2026-05-05 03:24 | -23.52356 | -45.20071 | 4439 ft | 195 kts | 270° |
| 2026-05-05 03:24 | -23.52373 | -45.21549 | 4441 ft | 195 kts | 270° |
| 2026-05-05 03:25 | -23.52391 | -45.23025 | 4444 ft | 195 kts | 270° |
| 2026-05-05 03:25 | -23.52410 | -45.24504 | 4442 ft | 195 kts | 270° |
| 2026-05-05 03:25 | -23.52428 | -45.25962 | 4436 ft | 194 kts | 270° |
| 2026-05-05 03:25 | -23.52445 | -45.27433 | 4439 ft | 194 kts | 270° |
| 2026-05-05 03:26 | -23.52463 | -45.28895 | 4520 ft | 192 kts | 271° |
| 2026-05-05 03:26 | -23.52479 | -45.30332 | 4631 ft | 189 kts | 271° |
| 2026-05-05 03:26 | -23.52497 | -45.31775 | 4636 ft | 192 kts | 270° |
| 2026-05-05 03:26 | -23.52515 | -45.33245 | 4636 ft | 195 kts | 270° |
| 2026-05-05 03:27 | -23.52532 | -45.34721 | 4633 ft | 196 kts | 270° |
| 2026-05-05 03:27 | -23.52550 | -45.36202 | 4633 ft | 195 kts | 270° |
| 2026-05-05 03:27 | -23.52575 | -45.37679 | 4639 ft | 196 kts | 271° |
| 2026-05-05 03:27 | -23.52574 | -45.38124 | 4660 ft | 195 kts | 271° |
| 2026-05-05 03:28 | -23.52588 | -45.39601 | 4661 ft | 196 kts | 270° |
| 2026-05-05 03:28 | -23.52608 | -45.41093 | 4655 ft | 198 kts | 270° |
| 2026-05-05 03:28 | -23.52623 | -45.42600 | 4643 ft | 198 kts | 271° |
| 2026-05-05 03:28 | -23.52638 | -45.44096 | 4656 ft | 197 kts | 271° |
| 2026-05-05 03:29 | -23.52655 | -45.45603 | 4644 ft | 199 kts | 270° |
| 2026-05-05 03:29 | -23.52677 | -45.47081 | 4648 ft | 198 kts | 270° |
| 2026-05-05 03:29 | -23.52687 | -45.48585 | 4639 ft | 198 kts | 271° |
| 2026-05-05 03:29 | -23.52705 | -45.50080 | 4642 ft | 196 kts | 271° |
| 2026-05-05 03:30 | -23.52717 | -45.51563 | 4641 ft | 196 kts | 271° |
| 2026-05-05 03:30 | -23.52733 | -45.53053 | 4643 ft | 197 kts | 270° |
| 2026-05-05 03:30 | -23.52750 | -45.54549 | 4642 ft | 197 kts | 270° |
| 2026-05-05 03:30 | -23.52765 | -45.56046 | 4640 ft | 198 kts | 271° |
| 2026-05-05 03:31 | -23.52783 | -45.57546 | 4639 ft | 198 kts | 270° |
| 2026-05-05 03:31 | -23.52788 | -45.58052 | 4642 ft | 197 kts | 271° |